<?xml version="1.0" encoding="UTF-8" standalone="no" ?>
 
<gpx xmlns="http://www.topografix.com/GPX/1/1" creator="bikehike.co.uk" version="1.1" 
    xmlns:xsi="http://www.w3.org/2001/XMLSchema-instance" 
    xsi:schemaLocation="http://www.topografix.com/GPX/1/1 http://www.topografix.com/GPX/1/1/gpx.xsd">


  <trk>
    <name>bas-cal08-act</name>
    <trkseg>
      <trkpt lat="50.514507" lon="2.690859">
       <ele>21.72</ele>
       <time>2014-11-08T18:14:36Z</time>
      </trkpt>
      <trkpt lat="50.514747" lon="2.689404">
       <ele>22.91</ele>
       <time>2014-11-08T18:15:07Z</time>
      </trkpt>
      <trkpt lat="50.516132" lon="2.681458">
       <ele>23.8</ele>
       <time>2014-11-08T18:18:02Z</time>
      </trkpt>
      <trkpt lat="50.516220" lon="2.681235">
       <ele>23.81</ele>
       <time>2014-11-08T18:18:08Z</time>
      </trkpt>
      <trkpt lat="50.516426" lon="2.681087">
       <ele>23.49</ele>
       <time>2014-11-08T18:18:15Z</time>
      </trkpt>
      <trkpt lat="50.516670" lon="2.681020">
       <ele>23</ele>
       <time>2014-11-08T18:18:24Z</time>
      </trkpt>
      <trkpt lat="50.517532" lon="2.680814">
       <ele>22.04</ele>
       <time>2014-11-08T18:18:53Z</time>
      </trkpt>
      <trkpt lat="50.518283" lon="2.680696">
       <ele>23.1</ele>
       <time>2014-11-08T18:19:18Z</time>
      </trkpt>
      <trkpt lat="50.518711" lon="2.680602">
       <ele>23.98</ele>
       <time>2014-11-08T18:19:32Z</time>
      </trkpt>
      <trkpt lat="50.519119" lon="2.680289">
       <ele>25.83</ele>
       <time>2014-11-08T18:19:47Z</time>
      </trkpt>
      <trkpt lat="50.519554" lon="2.679517">
       <ele>28.43</ele>
       <time>2014-11-08T18:20:09Z</time>
      </trkpt>
      <trkpt lat="50.519821" lon="2.678430">
       <ele>30.67</ele>
       <time>2014-11-08T18:20:34Z</time>
      </trkpt>
      <trkpt lat="50.519844" lon="2.678239">
       <ele>30.79</ele>
       <time>2014-11-08T18:20:38Z</time>
      </trkpt>
      <trkpt lat="50.519897" lon="2.678019">
       <ele>30.83</ele>
       <time>2014-11-08T18:20:43Z</time>
      </trkpt>
      <trkpt lat="50.520862" lon="2.671674">
       <ele>28.03</ele>
       <time>2014-11-08T18:23:02Z</time>
      </trkpt>
      <trkpt lat="50.520973" lon="2.671021">
       <ele>29.72</ele>
       <time>2014-11-08T18:23:16Z</time>
      </trkpt>
      <trkpt lat="50.522010" lon="2.664089">
       <ele>37.75</ele>
       <time>2014-11-08T18:25:47Z</time>
      </trkpt>
      <trkpt lat="50.522335" lon="2.661828">
       <ele>34.87</ele>
       <time>2014-11-08T18:26:36Z</time>
      </trkpt>
      <trkpt lat="50.522438" lon="2.661221">
       <ele>34.68</ele>
       <time>2014-11-08T18:26:49Z</time>
      </trkpt>
      <trkpt lat="50.523368" lon="2.654957">
       <ele>36.91</ele>
       <time>2014-11-08T18:29:06Z</time>
      </trkpt>
      <trkpt lat="50.524196" lon="2.653470">
       <ele>35.19</ele>
       <time>2014-11-08T18:29:48Z</time>
      </trkpt>
      <trkpt lat="50.525371" lon="2.650192">
       <ele>35.13</ele>
       <time>2014-11-08T18:31:08Z</time>
      </trkpt>
      <trkpt lat="50.526149" lon="2.647968">
       <ele>35.8</ele>
       <time>2014-11-08T18:32:02Z</time>
      </trkpt>
      <trkpt lat="50.527091" lon="2.646135">
       <ele>34.67</ele>
       <time>2014-11-08T18:32:52Z</time>
      </trkpt>
      <trkpt lat="50.527343" lon="2.645389">
       <ele>34.52</ele>
       <time>2014-11-08T18:33:09Z</time>
      </trkpt>
      <trkpt lat="50.527595" lon="2.644531">
       <ele>35.5</ele>
       <time>2014-11-08T18:33:30Z</time>
      </trkpt>
      <trkpt lat="50.528030" lon="2.642929">
       <ele>36.28</ele>
       <time>2014-11-08T18:34:06Z</time>
      </trkpt>
      <trkpt lat="50.528144" lon="2.642676">
       <ele>36.42</ele>
       <time>2014-11-08T18:34:13Z</time>
      </trkpt>
      <trkpt lat="50.528213" lon="2.642596">
       <ele>36.6</ele>
       <time>2014-11-08T18:34:16Z</time>
      </trkpt>
      <trkpt lat="50.528221" lon="2.642466">
       <ele>36.56</ele>
       <time>2014-11-08T18:34:19Z</time>
      </trkpt>
      <trkpt lat="50.528167" lon="2.642369">
       <ele>36.25</ele>
       <time>2014-11-08T18:34:21Z</time>
      </trkpt>
      <trkpt lat="50.528102" lon="2.642075">
       <ele>35.66</ele>
       <time>2014-11-08T18:34:28Z</time>
      </trkpt>
      <trkpt lat="50.527919" lon="2.640321">
       <ele>31.9</ele>
       <time>2014-11-08T18:35:06Z</time>
      </trkpt>
      <trkpt lat="50.527370" lon="2.636006">
       <ele>27.69</ele>
       <time>2014-11-08T18:36:39Z</time>
      </trkpt>
      <trkpt lat="50.528152" lon="2.635102">
       <ele>26.34</ele>
       <time>2014-11-08T18:37:11Z</time>
      </trkpt>
      <trkpt lat="50.528198" lon="2.635179">
       <ele>26.38</ele>
       <time>2014-11-08T18:37:14Z</time>
      </trkpt>
      <trkpt lat="50.528274" lon="2.635214">
       <ele>26.33</ele>
       <time>2014-11-08T18:37:16Z</time>
      </trkpt>
      <trkpt lat="50.528350" lon="2.635174">
       <ele>26.23</ele>
       <time>2014-11-08T18:37:19Z</time>
      </trkpt>
      <trkpt lat="50.528392" lon="2.635101">
       <ele>26.18</ele>
       <time>2014-11-08T18:37:21Z</time>
      </trkpt>
      <trkpt lat="50.528408" lon="2.634974">
       <ele>26.09</ele>
       <time>2014-11-08T18:37:24Z</time>
      </trkpt>
      <trkpt lat="50.528377" lon="2.634871">
       <ele>26.06</ele>
       <time>2014-11-08T18:37:26Z</time>
      </trkpt>
      <trkpt lat="50.529277" lon="2.633788">
       <ele>27.41</ele>
       <time>2014-11-08T18:38:04Z</time>
      </trkpt>
      <trkpt lat="50.530971" lon="2.631896">
       <ele>25.06</ele>
       <time>2014-11-08T18:39:13Z</time>
      </trkpt>
      <trkpt lat="50.531951" lon="2.630759">
       <ele>23.72</ele>
       <time>2014-11-08T18:39:54Z</time>
      </trkpt>
      <trkpt lat="50.532867" lon="2.628904">
       <ele>22.8</ele>
       <time>2014-11-08T18:40:44Z</time>
      </trkpt>
      <trkpt lat="50.531787" lon="2.626053">
       <ele>23.82</ele>
       <time>2014-11-08T18:41:54Z</time>
      </trkpt>
      <trkpt lat="50.531551" lon="2.625013">
       <ele>23.73</ele>
       <time>2014-11-08T18:42:18Z</time>
      </trkpt>
      <trkpt lat="50.531536" lon="2.624732">
       <ele>24.01</ele>
       <time>2014-11-08T18:42:24Z</time>
      </trkpt>
      <trkpt lat="50.531574" lon="2.624447">
       <ele>24.44</ele>
       <time>2014-11-08T18:42:30Z</time>
      </trkpt>
      <trkpt lat="50.531944" lon="2.623507">
       <ele>23.94</ele>
       <time>2014-11-08T18:42:53Z</time>
      </trkpt>
      <trkpt lat="50.532005" lon="2.623296">
       <ele>23.52</ele>
       <time>2014-11-08T18:42:58Z</time>
      </trkpt>
      <trkpt lat="50.532176" lon="2.622029">
       <ele>21.65</ele>
       <time>2014-11-08T18:43:26Z</time>
      </trkpt>
      <trkpt lat="50.532165" lon="2.621798">
       <ele>21.5</ele>
       <time>2014-11-08T18:43:31Z</time>
      </trkpt>
      <trkpt lat="50.532119" lon="2.621551">
       <ele>21.6</ele>
       <time>2014-11-08T18:43:36Z</time>
      </trkpt>
      <trkpt lat="50.531852" lon="2.620975">
       <ele>22.61</ele>
       <time>2014-11-08T18:43:51Z</time>
      </trkpt>
      <trkpt lat="50.532062" lon="2.620695">
       <ele>22.6</ele>
       <time>2014-11-08T18:44:00Z</time>
      </trkpt>
      <trkpt lat="50.532657" lon="2.619277">
       <ele>23</ele>
       <time>2014-11-08T18:44:36Z</time>
      </trkpt>
      <trkpt lat="50.532829" lon="2.618730">
       <ele>23.84</ele>
       <time>2014-11-08T18:44:49Z</time>
      </trkpt>
      <trkpt lat="50.533348" lon="2.617115">
       <ele>25.91</ele>
       <time>2014-11-08T18:45:28Z</time>
      </trkpt>
      <trkpt lat="50.533504" lon="2.616518">
       <ele>27.21</ele>
       <time>2014-11-08T18:45:41Z</time>
      </trkpt>
      <trkpt lat="50.533756" lon="2.615978">
       <ele>28.25</ele>
       <time>2014-11-08T18:45:56Z</time>
      </trkpt>
      <trkpt lat="50.533294" lon="2.615062">
       <ele>29.76</ele>
       <time>2014-11-08T18:46:20Z</time>
      </trkpt>
      <trkpt lat="50.533168" lon="2.614773">
       <ele>29.66</ele>
       <time>2014-11-08T18:46:28Z</time>
      </trkpt>
      <trkpt lat="50.532875" lon="2.613903">
       <ele>30.08</ele>
       <time>2014-11-08T18:46:49Z</time>
      </trkpt>
      <trkpt lat="50.532287" lon="2.612596">
       <ele>32.51</ele>
       <time>2014-11-08T18:47:23Z</time>
      </trkpt>
      <trkpt lat="50.532215" lon="2.612303">
       <ele>32.66</ele>
       <time>2014-11-08T18:47:29Z</time>
      </trkpt>
      <trkpt lat="50.531917" lon="2.610512">
       <ele>34.14</ele>
       <time>2014-11-08T18:48:09Z</time>
      </trkpt>
      <trkpt lat="50.531711" lon="2.610578">
       <ele>33.69</ele>
       <time>2014-11-08T18:48:16Z</time>
      </trkpt>
      <trkpt lat="50.531578" lon="2.610667">
       <ele>33.44</ele>
       <time>2014-11-08T18:48:20Z</time>
      </trkpt>
      <trkpt lat="50.531471" lon="2.610419">
       <ele>34.23</ele>
       <time>2014-11-08T18:48:27Z</time>
      </trkpt>
      <trkpt lat="50.531787" lon="2.609707">
       <ele>35.6</ele>
       <time>2014-11-08T18:48:45Z</time>
      </trkpt>
      <trkpt lat="50.531852" lon="2.609679">
       <ele>35.6</ele>
       <time>2014-11-08T18:48:47Z</time>
      </trkpt>
      <trkpt lat="50.531898" lon="2.609472">
       <ele>35.91</ele>
       <time>2014-11-08T18:48:52Z</time>
      </trkpt>
      <trkpt lat="50.532394" lon="2.608108">
       <ele>36.76</ele>
       <time>2014-11-08T18:49:25Z</time>
      </trkpt>
      <trkpt lat="50.533912" lon="2.604542">
       <ele>39.31</ele>
       <time>2014-11-08T18:50:56Z</time>
      </trkpt>
      <trkpt lat="50.535968" lon="2.599600">
       <ele>41.47</ele>
       <time>2014-11-08T18:53:02Z</time>
      </trkpt>
      <trkpt lat="50.536380" lon="2.598661">
       <ele>41.62</ele>
       <time>2014-11-08T18:53:26Z</time>
      </trkpt>
      <trkpt lat="50.536792" lon="2.597728">
       <ele>41.19</ele>
       <time>2014-11-08T18:53:50Z</time>
      </trkpt>
      <trkpt lat="50.537666" lon="2.595397">
       <ele>40.11</ele>
       <time>2014-11-08T18:54:47Z</time>
      </trkpt>
      <trkpt lat="50.538002" lon="2.594160">
       <ele>40.41</ele>
       <time>2014-11-08T18:55:16Z</time>
      </trkpt>
      <trkpt lat="50.538314" lon="2.592638">
       <ele>40.21</ele>
       <time>2014-11-08T18:55:50Z</time>
      </trkpt>
      <trkpt lat="50.538349" lon="2.592261">
       <ele>39.99</ele>
       <time>2014-11-08T18:55:58Z</time>
      </trkpt>
      <trkpt lat="50.538383" lon="2.591516">
       <ele>40.05</ele>
       <time>2014-11-08T18:56:14Z</time>
      </trkpt>
      <trkpt lat="50.538486" lon="2.590929">
       <ele>40.35</ele>
       <time>2014-11-08T18:56:27Z</time>
      </trkpt>
      <trkpt lat="50.538558" lon="2.590712">
       <ele>40.08</ele>
       <time>2014-11-08T18:56:32Z</time>
      </trkpt>
      <trkpt lat="50.538654" lon="2.590532">
       <ele>39.62</ele>
       <time>2014-11-08T18:56:37Z</time>
      </trkpt>
      <trkpt lat="50.538776" lon="2.590482">
       <ele>39.21</ele>
       <time>2014-11-08T18:56:41Z</time>
      </trkpt>
      <trkpt lat="50.538829" lon="2.590512">
       <ele>39.06</ele>
       <time>2014-11-08T18:56:43Z</time>
      </trkpt>
      <trkpt lat="50.538906" lon="2.590430">
       <ele>38.79</ele>
       <time>2014-11-08T18:56:46Z</time>
      </trkpt>
      <trkpt lat="50.538948" lon="2.590362">
       <ele>38.64</ele>
       <time>2014-11-08T18:56:48Z</time>
      </trkpt>
      <trkpt lat="50.539028" lon="2.590131">
       <ele>38.36</ele>
       <time>2014-11-08T18:56:54Z</time>
      </trkpt>
      <trkpt lat="50.539031" lon="2.589776">
       <ele>37.87</ele>
       <time>2014-11-08T18:57:01Z</time>
      </trkpt>
      <trkpt lat="50.538944" lon="2.589529">
       <ele>37.71</ele>
       <time>2014-11-08T18:57:07Z</time>
      </trkpt>
      <trkpt lat="50.538845" lon="2.589343">
       <ele>37.8</ele>
       <time>2014-11-08T18:57:12Z</time>
      </trkpt>
      <trkpt lat="50.538753" lon="2.589281">
       <ele>38.12</ele>
       <time>2014-11-08T18:57:16Z</time>
      </trkpt>
      <trkpt lat="50.538669" lon="2.589162">
       <ele>38.39</ele>
       <time>2014-11-08T18:57:19Z</time>
      </trkpt>
      <trkpt lat="50.538600" lon="2.588875">
       <ele>38.84</ele>
       <time>2014-11-08T18:57:26Z</time>
      </trkpt>
      <trkpt lat="50.538555" lon="2.588468">
       <ele>39.33</ele>
       <time>2014-11-08T18:57:35Z</time>
      </trkpt>
      <trkpt lat="50.538478" lon="2.587007">
       <ele>39.4</ele>
       <time>2014-11-08T18:58:06Z</time>
      </trkpt>
      <trkpt lat="50.538387" lon="2.586097">
       <ele>39.81</ele>
       <time>2014-11-08T18:58:25Z</time>
      </trkpt>
      <trkpt lat="50.537754" lon="2.580837">
       <ele>43.18</ele>
       <time>2014-11-08T19:00:19Z</time>
      </trkpt>
      <trkpt lat="50.537567" lon="2.578922">
       <ele>39.58</ele>
       <time>2014-11-08T19:01:00Z</time>
      </trkpt>
      <trkpt lat="50.537551" lon="2.577868">
       <ele>34.02</ele>
       <time>2014-11-08T19:01:22Z</time>
      </trkpt>
      <trkpt lat="50.537612" lon="2.572896">
       <ele>24.9</ele>
       <time>2014-11-08T19:03:08Z</time>
      </trkpt>
      <trkpt lat="50.537647" lon="2.571434">
       <ele>28.39</ele>
       <time>2014-11-08T19:03:39Z</time>
      </trkpt>
      <trkpt lat="50.537712" lon="2.570096">
       <ele>30.9</ele>
       <time>2014-11-08T19:04:07Z</time>
      </trkpt>
      <trkpt lat="50.537845" lon="2.569380">
       <ele>31.04</ele>
       <time>2014-11-08T19:04:23Z</time>
      </trkpt>
      <trkpt lat="50.538284" lon="2.567661">
       <ele>31.04</ele>
       <time>2014-11-08T19:05:02Z</time>
      </trkpt>
      <trkpt lat="50.538482" lon="2.567068">
       <ele>29.94</ele>
       <time>2014-11-08T19:05:17Z</time>
      </trkpt>
      <trkpt lat="50.538574" lon="2.567234">
       <ele>29.81</ele>
       <time>2014-11-08T19:05:21Z</time>
      </trkpt>
      <trkpt lat="50.538665" lon="2.567358">
       <ele>29.63</ele>
       <time>2014-11-08T19:05:25Z</time>
      </trkpt>
      <trkpt lat="50.538772" lon="2.567568">
       <ele>29.46</ele>
       <time>2014-11-08T19:05:31Z</time>
      </trkpt>
      <trkpt lat="50.539581" lon="2.569539">
       <ele>27.56</ele>
       <time>2014-11-08T19:06:21Z</time>
      </trkpt>
      <trkpt lat="50.539756" lon="2.569736">
       <ele>26.9</ele>
       <time>2014-11-08T19:06:28Z</time>
      </trkpt>
      <trkpt lat="50.539836" lon="2.569724">
       <ele>26.72</ele>
       <time>2014-11-08T19:06:31Z</time>
      </trkpt>
      <trkpt lat="50.539829" lon="2.569643">
       <ele>26.84</ele>
       <time>2014-11-08T19:06:32Z</time>
      </trkpt>
      <trkpt lat="50.539909" lon="2.569117">
       <ele>27.16</ele>
       <time>2014-11-08T19:06:44Z</time>
      </trkpt>
      <trkpt lat="50.540325" lon="2.567928">
       <ele>25.22</ele>
       <time>2014-11-08T19:07:13Z</time>
      </trkpt>
      <trkpt lat="50.540382" lon="2.567707">
       <ele>25.08</ele>
       <time>2014-11-08T19:07:18Z</time>
      </trkpt>
      <trkpt lat="50.540473" lon="2.566977">
       <ele>24.23</ele>
       <time>2014-11-08T19:07:33Z</time>
      </trkpt>
      <trkpt lat="50.540554" lon="2.566492">
       <ele>23.46</ele>
       <time>2014-11-08T19:07:44Z</time>
      </trkpt>
      <trkpt lat="50.541019" lon="2.564223">
       <ele>22.49</ele>
       <time>2014-11-08T19:08:35Z</time>
      </trkpt>
      <trkpt lat="50.541130" lon="2.563230">
       <ele>22.61</ele>
       <time>2014-11-08T19:08:56Z</time>
      </trkpt>
      <trkpt lat="50.541145" lon="2.562855">
       <ele>22.48</ele>
       <time>2014-11-08T19:09:04Z</time>
      </trkpt>
      <trkpt lat="50.541137" lon="2.561923">
       <ele>22.3</ele>
       <time>2014-11-08T19:09:24Z</time>
      </trkpt>
      <trkpt lat="50.541107" lon="2.561665">
       <ele>22.34</ele>
       <time>2014-11-08T19:09:29Z</time>
      </trkpt>
      <trkpt lat="50.541187" lon="2.561418">
       <ele>22.15</ele>
       <time>2014-11-08T19:09:35Z</time>
      </trkpt>
      <trkpt lat="50.541564" lon="2.560029">
       <ele>22.09</ele>
       <time>2014-11-08T19:10:07Z</time>
      </trkpt>
      <trkpt lat="50.541839" lon="2.558537">
       <ele>22.7</ele>
       <time>2014-11-08T19:10:40Z</time>
      </trkpt>
      <trkpt lat="50.542263" lon="2.556009">
       <ele>21</ele>
       <time>2014-11-08T19:11:36Z</time>
      </trkpt>
      <trkpt lat="50.542606" lon="2.553777">
       <ele>22.75</ele>
       <time>2014-11-08T19:12:24Z</time>
      </trkpt>
      <trkpt lat="50.543014" lon="2.550910">
       <ele>24.12</ele>
       <time>2014-11-08T19:13:27Z</time>
      </trkpt>
      <trkpt lat="50.544349" lon="2.550112">
       <ele>23.1</ele>
       <time>2014-11-08T19:14:14Z</time>
      </trkpt>
      <trkpt lat="50.544555" lon="2.550014">
       <ele>23.01</ele>
       <time>2014-11-08T19:14:21Z</time>
      </trkpt>
      <trkpt lat="50.545795" lon="2.549606">
       <ele>22.52</ele>
       <time>2014-11-08T19:15:04Z</time>
      </trkpt>
      <trkpt lat="50.546268" lon="2.549483">
       <ele>21.45</ele>
       <time>2014-11-08T19:15:20Z</time>
      </trkpt>
      <trkpt lat="50.546607" lon="2.549433">
       <ele>20.49</ele>
       <time>2014-11-08T19:15:31Z</time>
      </trkpt>
      <trkpt lat="50.546955" lon="2.549454">
       <ele>19.88</ele>
       <time>2014-11-08T19:15:43Z</time>
      </trkpt>
      <trkpt lat="50.547142" lon="2.549433">
       <ele>19.57</ele>
       <time>2014-11-08T19:15:49Z</time>
      </trkpt>
      <trkpt lat="50.547351" lon="2.549365">
       <ele>19.22</ele>
       <time>2014-11-08T19:15:56Z</time>
      </trkpt>
      <trkpt lat="50.547527" lon="2.549283">
       <ele>18.96</ele>
       <time>2014-11-08T19:16:02Z</time>
      </trkpt>
      <trkpt lat="50.547702" lon="2.549160">
       <ele>18.76</ele>
       <time>2014-11-08T19:16:09Z</time>
      </trkpt>
      <trkpt lat="50.548202" lon="2.548736">
       <ele>19.03</ele>
       <time>2014-11-08T19:16:28Z</time>
      </trkpt>
      <trkpt lat="50.548927" lon="2.548120">
       <ele>18.68</ele>
       <time>2014-11-08T19:16:55Z</time>
      </trkpt>
      <trkpt lat="50.549194" lon="2.547841">
       <ele>18.58</ele>
       <time>2014-11-08T19:17:06Z</time>
      </trkpt>
      <trkpt lat="50.551048" lon="2.544595">
       <ele>19.49</ele>
       <time>2014-11-08T19:18:38Z</time>
      </trkpt>
      <trkpt lat="50.552413" lon="2.540985">
       <ele>18.16</ele>
       <time>2014-11-08T19:20:07Z</time>
      </trkpt>
      <trkpt lat="50.552413" lon="2.540743">
       <ele>18.12</ele>
       <time>2014-11-08T19:20:12Z</time>
      </trkpt>
      <trkpt lat="50.552375" lon="2.540641">
       <ele>18.27</ele>
       <time>2014-11-08T19:20:15Z</time>
      </trkpt>
      <trkpt lat="50.551837" lon="2.539675">
       <ele>20.18</ele>
       <time>2014-11-08T19:20:42Z</time>
      </trkpt>
      <trkpt lat="50.551818" lon="2.539479">
       <ele>20.44</ele>
       <time>2014-11-08T19:20:46Z</time>
      </trkpt>
      <trkpt lat="50.551841" lon="2.539371">
       <ele>20.54</ele>
       <time>2014-11-08T19:20:49Z</time>
      </trkpt>
      <trkpt lat="50.551898" lon="2.539293">
       <ele>20.57</ele>
       <time>2014-11-08T19:20:51Z</time>
      </trkpt>
      <trkpt lat="50.552894" lon="2.538211">
       <ele>19.45</ele>
       <time>2014-11-08T19:21:32Z</time>
      </trkpt>
      <trkpt lat="50.553688" lon="2.537208">
       <ele>19</ele>
       <time>2014-11-08T19:22:06Z</time>
      </trkpt>
      <trkpt lat="50.554817" lon="2.535968">
       <ele>20.62</ele>
       <time>2014-11-08T19:22:52Z</time>
      </trkpt>
      <trkpt lat="50.554897" lon="2.535948">
       <ele>20.74</ele>
       <time>2014-11-08T19:22:54Z</time>
      </trkpt>
      <trkpt lat="50.554931" lon="2.535825">
       <ele>20.93</ele>
       <time>2014-11-08T19:22:57Z</time>
      </trkpt>
      <trkpt lat="50.556015" lon="2.534584">
       <ele>20.78</ele>
       <time>2014-11-08T19:23:42Z</time>
      </trkpt>
      <trkpt lat="50.556240" lon="2.534306">
       <ele>20.51</ele>
       <time>2014-11-08T19:23:51Z</time>
      </trkpt>
      <trkpt lat="50.556438" lon="2.534008">
       <ele>20.46</ele>
       <time>2014-11-08T19:24:01Z</time>
      </trkpt>
      <trkpt lat="50.556648" lon="2.533607">
       <ele>20.69</ele>
       <time>2014-11-08T19:24:12Z</time>
      </trkpt>
      <trkpt lat="50.556995" lon="2.532788">
       <ele>20.61</ele>
       <time>2014-11-08T19:24:32Z</time>
      </trkpt>
      <trkpt lat="50.557270" lon="2.531893">
       <ele>20.28</ele>
       <time>2014-11-08T19:24:54Z</time>
      </trkpt>
      <trkpt lat="50.557361" lon="2.531650">
       <ele>20.17</ele>
       <time>2014-11-08T19:25:00Z</time>
      </trkpt>
      <trkpt lat="50.557582" lon="2.531213">
       <ele>20</ele>
       <time>2014-11-08T19:25:11Z</time>
      </trkpt>
      <trkpt lat="50.557651" lon="2.531152">
       <ele>20</ele>
       <time>2014-11-08T19:25:14Z</time>
      </trkpt>
      <trkpt lat="50.557731" lon="2.531119">
       <ele>20</ele>
       <time>2014-11-08T19:25:17Z</time>
      </trkpt>
      <trkpt lat="50.557823" lon="2.531116">
       <ele>20</ele>
       <time>2014-11-08T19:25:20Z</time>
      </trkpt>
      <trkpt lat="50.558052" lon="2.531265">
       <ele>20</ele>
       <time>2014-11-08T19:25:28Z</time>
      </trkpt>
      <trkpt lat="50.558345" lon="2.531276">
       <ele>20.01</ele>
       <time>2014-11-08T19:25:38Z</time>
      </trkpt>
      <trkpt lat="50.559211" lon="2.531053">
       <ele>20.95</ele>
       <time>2014-11-08T19:26:07Z</time>
      </trkpt>
      <trkpt lat="50.559349" lon="2.530982">
       <ele>20.78</ele>
       <time>2014-11-08T19:26:12Z</time>
      </trkpt>
      <trkpt lat="50.559478" lon="2.530853">
       <ele>20.63</ele>
       <time>2014-11-08T19:26:17Z</time>
      </trkpt>
      <trkpt lat="50.559761" lon="2.530261">
       <ele>20.29</ele>
       <time>2014-11-08T19:26:33Z</time>
      </trkpt>
      <trkpt lat="50.559902" lon="2.529735">
       <ele>20.15</ele>
       <time>2014-11-08T19:26:45Z</time>
      </trkpt>
      <trkpt lat="50.559970" lon="2.529592">
       <ele>20.05</ele>
       <time>2014-11-08T19:26:49Z</time>
      </trkpt>
      <trkpt lat="50.560031" lon="2.529540">
       <ele>19.98</ele>
       <time>2014-11-08T19:26:51Z</time>
      </trkpt>
      <trkpt lat="50.560146" lon="2.529505">
       <ele>19.9</ele>
       <time>2014-11-08T19:26:55Z</time>
      </trkpt>
      <trkpt lat="50.560306" lon="2.529488">
       <ele>19.77</ele>
       <time>2014-11-08T19:27:00Z</time>
      </trkpt>
      <trkpt lat="50.560817" lon="2.529458">
       <ele>19.36</ele>
       <time>2014-11-08T19:27:17Z</time>
      </trkpt>
      <trkpt lat="50.560993" lon="2.529474">
       <ele>19.49</ele>
       <time>2014-11-08T19:27:23Z</time>
      </trkpt>
      <trkpt lat="50.561286" lon="2.529556">
       <ele>19.76</ele>
       <time>2014-11-08T19:27:33Z</time>
      </trkpt>
      <trkpt lat="50.562889" lon="2.529865">
       <ele>18.98</ele>
       <time>2014-11-08T19:28:27Z</time>
      </trkpt>
      <trkpt lat="50.563014" lon="2.529834">
       <ele>18.69</ele>
       <time>2014-11-08T19:28:31Z</time>
      </trkpt>
      <trkpt lat="50.563137" lon="2.529761">
       <ele>18.4</ele>
       <time>2014-11-08T19:28:36Z</time>
      </trkpt>
      <trkpt lat="50.564216" lon="2.528696">
       <ele>21.06</ele>
       <time>2014-11-08T19:29:18Z</time>
      </trkpt>
      <trkpt lat="50.564273" lon="2.528690">
       <ele>21</ele>
       <time>2014-11-08T19:29:20Z</time>
      </trkpt>
      <trkpt lat="50.564426" lon="2.528733">
       <ele>20.72</ele>
       <time>2014-11-08T19:29:25Z</time>
      </trkpt>
      <trkpt lat="50.564491" lon="2.528783">
       <ele>20.56</ele>
       <time>2014-11-08T19:29:28Z</time>
      </trkpt>
      <trkpt lat="50.564609" lon="2.528917">
       <ele>20.28</ele>
       <time>2014-11-08T19:29:33Z</time>
      </trkpt>
      <trkpt lat="50.565395" lon="2.529684">
       <ele>19.89</ele>
       <time>2014-11-08T19:30:03Z</time>
      </trkpt>
      <trkpt lat="50.565734" lon="2.530064">
       <ele>19.04</ele>
       <time>2014-11-08T19:30:17Z</time>
      </trkpt>
      <trkpt lat="50.565872" lon="2.530174">
       <ele>18.8</ele>
       <time>2014-11-08T19:30:22Z</time>
      </trkpt>
      <trkpt lat="50.566089" lon="2.530272">
       <ele>18.77</ele>
       <time>2014-11-08T19:30:30Z</time>
      </trkpt>
      <trkpt lat="50.566299" lon="2.530435">
       <ele>18.77</ele>
       <time>2014-11-08T19:30:38Z</time>
      </trkpt>
      <trkpt lat="50.566352" lon="2.530452">
       <ele>18.8</ele>
       <time>2014-11-08T19:30:40Z</time>
      </trkpt>
      <trkpt lat="50.567729" lon="2.530602">
       <ele>19</ele>
       <time>2014-11-08T19:31:26Z</time>
      </trkpt>
      <trkpt lat="50.567977" lon="2.530527">
       <ele>19</ele>
       <time>2014-11-08T19:31:34Z</time>
      </trkpt>
      <trkpt lat="50.568115" lon="2.530467">
       <ele>19</ele>
       <time>2014-11-08T19:31:39Z</time>
      </trkpt>
      <trkpt lat="50.569957" lon="2.529386">
       <ele>20.26</ele>
       <time>2014-11-08T19:32:44Z</time>
      </trkpt>
      <trkpt lat="50.570251" lon="2.529263">
       <ele>19.81</ele>
       <time>2014-11-08T19:32:55Z</time>
      </trkpt>
      <trkpt lat="50.570270" lon="2.529232">
       <ele>19.75</ele>
       <time>2014-11-08T19:32:55Z</time>
      </trkpt>
      <trkpt lat="50.573280" lon="2.528985">
       <ele>18.41</ele>
       <time>2014-11-08T19:34:36Z</time>
      </trkpt>
      <trkpt lat="50.573310" lon="2.529824">
       <ele>16.46</ele>
       <time>2014-11-08T19:34:54Z</time>
      </trkpt>
      <trkpt lat="50.573535" lon="2.531409">
       <ele>19.52</ele>
       <time>2014-11-08T19:35:28Z</time>
      </trkpt>
      <trkpt lat="50.573940" lon="2.531290">
       <ele>19.15</ele>
       <time>2014-11-08T19:35:42Z</time>
      </trkpt>
      <trkpt lat="50.574317" lon="2.531152">
       <ele>18.93</ele>
       <time>2014-11-08T19:35:55Z</time>
      </trkpt>
      <trkpt lat="50.574756" lon="2.530915">
       <ele>18.93</ele>
       <time>2014-11-08T19:36:10Z</time>
      </trkpt>
      <trkpt lat="50.575069" lon="2.530630">
       <ele>18.87</ele>
       <time>2014-11-08T19:36:22Z</time>
      </trkpt>
      <trkpt lat="50.575527" lon="2.530003">
       <ele>19</ele>
       <time>2014-11-08T19:36:43Z</time>
      </trkpt>
      <trkpt lat="50.576072" lon="2.529421">
       <ele>19.2</ele>
       <time>2014-11-08T19:37:05Z</time>
      </trkpt>
      <trkpt lat="50.576766" lon="2.528892">
       <ele>20.04</ele>
       <time>2014-11-08T19:37:30Z</time>
      </trkpt>
      <trkpt lat="50.577205" lon="2.528455">
       <ele>20.55</ele>
       <time>2014-11-08T19:37:48Z</time>
      </trkpt>
      <trkpt lat="50.577354" lon="2.528188">
       <ele>20.83</ele>
       <time>2014-11-08T19:37:55Z</time>
      </trkpt>
      <trkpt lat="50.577487" lon="2.527842">
       <ele>20.99</ele>
       <time>2014-11-08T19:38:04Z</time>
      </trkpt>
      <trkpt lat="50.577640" lon="2.527298">
       <ele>20.92</ele>
       <time>2014-11-08T19:38:16Z</time>
      </trkpt>
      <trkpt lat="50.577941" lon="2.527271">
       <ele>20.71</ele>
       <time>2014-11-08T19:38:27Z</time>
      </trkpt>
      <trkpt lat="50.578567" lon="2.527318">
       <ele>20.4</ele>
       <time>2014-11-08T19:38:47Z</time>
      </trkpt>
      <trkpt lat="50.578849" lon="2.527179">
       <ele>20.09</ele>
       <time>2014-11-08T19:38:57Z</time>
      </trkpt>
      <trkpt lat="50.579364" lon="2.526726">
       <ele>20</ele>
       <time>2014-11-08T19:39:17Z</time>
      </trkpt>
      <trkpt lat="50.579715" lon="2.526721">
       <ele>20</ele>
       <time>2014-11-08T19:39:29Z</time>
      </trkpt>
      <trkpt lat="50.580017" lon="2.527045">
       <ele>19.98</ele>
       <time>2014-11-08T19:39:41Z</time>
      </trkpt>
      <trkpt lat="50.582077" lon="2.524130">
       <ele>18.94</ele>
       <time>2014-11-08T19:41:13Z</time>
      </trkpt>
      <trkpt lat="50.585830" lon="2.520431">
       <ele>20</ele>
       <time>2014-11-08T19:43:41Z</time>
      </trkpt>
      <trkpt lat="50.586170" lon="2.520143">
       <ele>19.6</ele>
       <time>2014-11-08T19:43:54Z</time>
      </trkpt>
      <trkpt lat="50.587024" lon="2.519418">
       <ele>20.1</ele>
       <time>2014-11-08T19:44:26Z</time>
      </trkpt>
      <trkpt lat="50.587871" lon="2.518552">
       <ele>19.55</ele>
       <time>2014-11-08T19:45:00Z</time>
      </trkpt>
      <trkpt lat="50.588001" lon="2.518640">
       <ele>19.4</ele>
       <time>2014-11-08T19:45:05Z</time>
      </trkpt>
      <trkpt lat="50.588871" lon="2.518465">
       <ele>19.1</ele>
       <time>2014-11-08T19:45:34Z</time>
      </trkpt>
      <trkpt lat="50.589050" lon="2.518443">
       <ele>19.11</ele>
       <time>2014-11-08T19:45:40Z</time>
      </trkpt>
      <trkpt lat="50.588924" lon="2.517235">
       <ele>19</ele>
       <time>2014-11-08T19:46:06Z</time>
      </trkpt>
      <trkpt lat="50.588935" lon="2.517076">
       <ele>19</ele>
       <time>2014-11-08T19:46:09Z</time>
      </trkpt>
      <trkpt lat="50.588981" lon="2.516952">
       <ele>19</ele>
       <time>2014-11-08T19:46:12Z</time>
      </trkpt>
      <trkpt lat="50.589046" lon="2.516853">
       <ele>19</ele>
       <time>2014-11-08T19:46:15Z</time>
      </trkpt>
      <trkpt lat="50.589176" lon="2.516735">
       <ele>19.01</ele>
       <time>2014-11-08T19:46:20Z</time>
      </trkpt>
      <trkpt lat="50.589309" lon="2.516658">
       <ele>19.16</ele>
       <time>2014-11-08T19:46:25Z</time>
      </trkpt>
      <trkpt lat="50.589542" lon="2.516582">
       <ele>19.35</ele>
       <time>2014-11-08T19:46:33Z</time>
      </trkpt>
      <trkpt lat="50.589832" lon="2.516587">
       <ele>19.7</ele>
       <time>2014-11-08T19:46:43Z</time>
      </trkpt>
      <trkpt lat="50.589927" lon="2.516546">
       <ele>19.77</ele>
       <time>2014-11-08T19:46:46Z</time>
      </trkpt>
      <trkpt lat="50.590122" lon="2.516371">
       <ele>19.5</ele>
       <time>2014-11-08T19:46:53Z</time>
      </trkpt>
      <trkpt lat="50.590263" lon="2.516181">
       <ele>19.1</ele>
       <time>2014-11-08T19:47:00Z</time>
      </trkpt>
      <trkpt lat="50.590618" lon="2.515938">
       <ele>18.38</ele>
       <time>2014-11-08T19:47:13Z</time>
      </trkpt>
      <trkpt lat="50.590808" lon="2.515767">
       <ele>18.03</ele>
       <time>2014-11-08T19:47:20Z</time>
      </trkpt>
      <trkpt lat="50.591018" lon="2.515552">
       <ele>18</ele>
       <time>2014-11-08T19:47:28Z</time>
      </trkpt>
      <trkpt lat="50.591377" lon="2.515090">
       <ele>18</ele>
       <time>2014-11-08T19:47:44Z</time>
      </trkpt>
      <trkpt lat="50.591934" lon="2.514569">
       <ele>18</ele>
       <time>2014-11-08T19:48:05Z</time>
      </trkpt>
      <trkpt lat="50.593029" lon="2.513807">
       <ele>17.37</ele>
       <time>2014-11-08T19:48:45Z</time>
      </trkpt>
      <trkpt lat="50.593872" lon="2.513292">
       <ele>17.05</ele>
       <time>2014-11-08T19:49:15Z</time>
      </trkpt>
      <trkpt lat="50.594284" lon="2.512995">
       <ele>17.71</ele>
       <time>2014-11-08T19:49:31Z</time>
      </trkpt>
      <trkpt lat="50.594505" lon="2.512813">
       <ele>18.34</ele>
       <time>2014-11-08T19:49:39Z</time>
      </trkpt>
      <trkpt lat="50.595661" lon="2.511708">
       <ele>17.1</ele>
       <time>2014-11-08T19:50:24Z</time>
      </trkpt>
      <trkpt lat="50.595764" lon="2.511554">
       <ele>17.12</ele>
       <time>2014-11-08T19:50:29Z</time>
      </trkpt>
      <trkpt lat="50.596088" lon="2.510761">
       <ele>17.75</ele>
       <time>2014-11-08T19:50:49Z</time>
      </trkpt>
      <trkpt lat="50.596229" lon="2.510548">
       <ele>17.7</ele>
       <time>2014-11-08T19:50:55Z</time>
      </trkpt>
      <trkpt lat="50.596469" lon="2.510257">
       <ele>17.4</ele>
       <time>2014-11-08T19:51:05Z</time>
      </trkpt>
      <trkpt lat="50.597145" lon="2.509608">
       <ele>17.57</ele>
       <time>2014-11-08T19:51:32Z</time>
      </trkpt>
      <trkpt lat="50.597743" lon="2.509082">
       <ele>17.74</ele>
       <time>2014-11-08T19:51:55Z</time>
      </trkpt>
      <trkpt lat="50.598762" lon="2.508248">
       <ele>18.61</ele>
       <time>2014-11-08T19:52:33Z</time>
      </trkpt>
      <trkpt lat="50.599540" lon="2.507647">
       <ele>18.63</ele>
       <time>2014-11-08T19:53:02Z</time>
      </trkpt>
      <trkpt lat="50.601562" lon="2.506016">
       <ele>18.22</ele>
       <time>2014-11-08T19:54:18Z</time>
      </trkpt>
      <trkpt lat="50.602317" lon="2.505244">
       <ele>18.31</ele>
       <time>2014-11-08T19:54:48Z</time>
      </trkpt>
      <trkpt lat="50.602706" lon="2.504879">
       <ele>17.54</ele>
       <time>2014-11-08T19:55:03Z</time>
      </trkpt>
      <trkpt lat="50.603923" lon="2.503962">
       <ele>17.78</ele>
       <time>2014-11-08T19:55:48Z</time>
      </trkpt>
      <trkpt lat="50.604686" lon="2.503232">
       <ele>17.38</ele>
       <time>2014-11-08T19:56:18Z</time>
      </trkpt>
      <trkpt lat="50.605232" lon="2.502633">
       <ele>17.23</ele>
       <time>2014-11-08T19:56:40Z</time>
      </trkpt>
      <trkpt lat="50.605289" lon="2.502530">
       <ele>17.33</ele>
       <time>2014-11-08T19:56:43Z</time>
      </trkpt>
      <trkpt lat="50.606353" lon="2.501327">
       <ele>17</ele>
       <time>2014-11-08T19:57:26Z</time>
      </trkpt>
      <trkpt lat="50.606807" lon="2.500755">
       <ele>17.15</ele>
       <time>2014-11-08T19:57:46Z</time>
      </trkpt>
      <trkpt lat="50.607292" lon="2.500257">
       <ele>17.23</ele>
       <time>2014-11-08T19:58:05Z</time>
      </trkpt>
      <trkpt lat="50.608154" lon="2.499485">
       <ele>17</ele>
       <time>2014-11-08T19:58:38Z</time>
      </trkpt>
      <trkpt lat="50.608322" lon="2.499284">
       <ele>17</ele>
       <time>2014-11-08T19:58:45Z</time>
      </trkpt>
      <trkpt lat="50.608497" lon="2.498743">
       <ele>18</ele>
       <time>2014-11-08T19:58:58Z</time>
      </trkpt>
      <trkpt lat="50.609313" lon="2.497347">
       <ele>17.85</ele>
       <time>2014-11-08T19:59:38Z</time>
      </trkpt>
      <trkpt lat="50.609794" lon="2.496356">
       <ele>17.47</ele>
       <time>2014-11-08T20:00:05Z</time>
      </trkpt>
      <trkpt lat="50.610187" lon="2.495618">
       <ele>17.06</ele>
       <time>2014-11-08T20:00:25Z</time>
      </trkpt>
      <trkpt lat="50.610595" lon="2.494662">
       <ele>17.71</ele>
       <time>2014-11-08T20:00:49Z</time>
      </trkpt>
      <trkpt lat="50.611602" lon="2.492088">
       <ele>18.53</ele>
       <time>2014-11-08T20:01:53Z</time>
      </trkpt>
      <trkpt lat="50.611686" lon="2.491842">
       <ele>18.79</ele>
       <time>2014-11-08T20:01:59Z</time>
      </trkpt>
      <trkpt lat="50.612026" lon="2.491470">
       <ele>19</ele>
       <time>2014-11-08T20:02:13Z</time>
      </trkpt>
      <trkpt lat="50.612129" lon="2.491333">
       <ele>19</ele>
       <time>2014-11-08T20:02:18Z</time>
      </trkpt>
      <trkpt lat="50.613105" lon="2.489593">
       <ele>19.73</ele>
       <time>2014-11-08T20:03:07Z</time>
      </trkpt>
      <trkpt lat="50.612983" lon="2.489392">
       <ele>19.58</ele>
       <time>2014-11-08T20:03:13Z</time>
      </trkpt>
      <trkpt lat="50.612876" lon="2.489141">
       <ele>19.41</ele>
       <time>2014-11-08T20:03:19Z</time>
      </trkpt>
      <trkpt lat="50.612800" lon="2.488873">
       <ele>18.88</ele>
       <time>2014-11-08T20:03:25Z</time>
      </trkpt>
      <trkpt lat="50.612762" lon="2.488657">
       <ele>18.51</ele>
       <time>2014-11-08T20:03:30Z</time>
      </trkpt>
      <trkpt lat="50.612731" lon="2.488224">
       <ele>18</ele>
       <time>2014-11-08T20:03:39Z</time>
      </trkpt>
      <trkpt lat="50.612728" lon="2.487586">
       <ele>18</ele>
       <time>2014-11-08T20:03:53Z</time>
      </trkpt>
      <trkpt lat="50.612762" lon="2.487131">
       <ele>18.3</ele>
       <time>2014-11-08T20:04:03Z</time>
      </trkpt>
      <trkpt lat="50.612918" lon="2.486258">
       <ele>18.99</ele>
       <time>2014-11-08T20:04:22Z</time>
      </trkpt>
      <trkpt lat="50.613117" lon="2.485320">
       <ele>19.21</ele>
       <time>2014-11-08T20:04:43Z</time>
      </trkpt>
      <trkpt lat="50.614921" lon="2.476037">
       <ele>20.68</ele>
       <time>2014-11-08T20:08:08Z</time>
      </trkpt>
      <trkpt lat="50.615039" lon="2.475260">
       <ele>20.95</ele>
       <time>2014-11-08T20:08:25Z</time>
      </trkpt>
      <trkpt lat="50.615299" lon="2.474308">
       <ele>20.11</ele>
       <time>2014-11-08T20:08:47Z</time>
      </trkpt>
      <trkpt lat="50.616333" lon="2.472330">
       <ele>20.2</ele>
       <time>2014-11-08T20:09:41Z</time>
      </trkpt>
      <trkpt lat="50.616806" lon="2.471220">
       <ele>19.26</ele>
       <time>2014-11-08T20:10:10Z</time>
      </trkpt>
      <trkpt lat="50.617454" lon="2.468852">
       <ele>21.39</ele>
       <time>2014-11-08T20:11:04Z</time>
      </trkpt>
      <trkpt lat="50.617591" lon="2.468017">
       <ele>22.05</ele>
       <time>2014-11-08T20:11:23Z</time>
      </trkpt>
      <trkpt lat="50.617675" lon="2.467220">
       <ele>21.77</ele>
       <time>2014-11-08T20:11:40Z</time>
      </trkpt>
      <trkpt lat="50.617496" lon="2.464931">
       <ele>23.08</ele>
       <time>2014-11-08T20:12:29Z</time>
      </trkpt>
      <trkpt lat="50.617488" lon="2.464667">
       <ele>23.39</ele>
       <time>2014-11-08T20:12:34Z</time>
      </trkpt>
      <trkpt lat="50.617660" lon="2.461792">
       <ele>25.25</ele>
       <time>2014-11-08T20:13:35Z</time>
      </trkpt>
      <trkpt lat="50.617675" lon="2.459578">
       <ele>29.66</ele>
       <time>2014-11-08T20:14:22Z</time>
      </trkpt>
      <trkpt lat="50.617797" lon="2.459520">
       <ele>29.09</ele>
       <time>2014-11-08T20:14:26Z</time>
      </trkpt>
      <trkpt lat="50.618110" lon="2.459192">
       <ele>27.35</ele>
       <time>2014-11-08T20:14:39Z</time>
      </trkpt>
      <trkpt lat="50.620510" lon="2.455912">
       <ele>32.63</ele>
       <time>2014-11-08T20:16:25Z</time>
      </trkpt>
      <trkpt lat="50.622020" lon="2.454627">
       <ele>33.24</ele>
       <time>2014-11-08T20:17:22Z</time>
      </trkpt>
      <trkpt lat="50.622802" lon="2.453691">
       <ele>32.91</ele>
       <time>2014-11-08T20:17:55Z</time>
      </trkpt>
      <trkpt lat="50.623348" lon="2.453238">
       <ele>31.1</ele>
       <time>2014-11-08T20:18:16Z</time>
      </trkpt>
      <trkpt lat="50.623645" lon="2.452811">
       <ele>31.72</ele>
       <time>2014-11-08T20:18:29Z</time>
      </trkpt>
      <trkpt lat="50.624691" lon="2.451128">
       <ele>34.05</ele>
       <time>2014-11-08T20:19:19Z</time>
      </trkpt>
      <trkpt lat="50.625106" lon="2.450243">
       <ele>36.16</ele>
       <time>2014-11-08T20:19:42Z</time>
      </trkpt>
      <trkpt lat="50.625194" lon="2.449965">
       <ele>36.56</ele>
       <time>2014-11-08T20:19:49Z</time>
      </trkpt>
      <trkpt lat="50.625247" lon="2.449639">
       <ele>36.79</ele>
       <time>2014-11-08T20:19:56Z</time>
      </trkpt>
      <trkpt lat="50.625499" lon="2.446403">
       <ele>35.55</ele>
       <time>2014-11-08T20:21:05Z</time>
      </trkpt>
      <trkpt lat="50.625480" lon="2.445898">
       <ele>35.07</ele>
       <time>2014-11-08T20:21:16Z</time>
      </trkpt>
      <trkpt lat="50.625358" lon="2.445168">
       <ele>33.4</ele>
       <time>2014-11-08T20:21:32Z</time>
      </trkpt>
      <trkpt lat="50.625366" lon="2.444793">
       <ele>32.5</ele>
       <time>2014-11-08T20:21:39Z</time>
      </trkpt>
      <trkpt lat="50.625450" lon="2.444467">
       <ele>31.72</ele>
       <time>2014-11-08T20:21:47Z</time>
      </trkpt>
      <trkpt lat="50.625583" lon="2.444196">
       <ele>31.07</ele>
       <time>2014-11-08T20:21:54Z</time>
      </trkpt>
      <trkpt lat="50.625713" lon="2.444047">
       <ele>30.71</ele>
       <time>2014-11-08T20:22:00Z</time>
      </trkpt>
      <trkpt lat="50.625766" lon="2.444169">
       <ele>31.01</ele>
       <time>2014-11-08T20:22:03Z</time>
      </trkpt>
      <trkpt lat="50.625839" lon="2.444252">
       <ele>31.2</ele>
       <time>2014-11-08T20:22:06Z</time>
      </trkpt>
      <trkpt lat="50.625946" lon="2.444288">
       <ele>31.27</ele>
       <time>2014-11-08T20:22:09Z</time>
      </trkpt>
      <trkpt lat="50.626037" lon="2.444261">
       <ele>31.2</ele>
       <time>2014-11-08T20:22:12Z</time>
      </trkpt>
      <trkpt lat="50.626102" lon="2.444204">
       <ele>31.08</ele>
       <time>2014-11-08T20:22:15Z</time>
      </trkpt>
      <trkpt lat="50.626167" lon="2.444077">
       <ele>30.83</ele>
       <time>2014-11-08T20:22:18Z</time>
      </trkpt>
      <trkpt lat="50.626197" lon="2.443886">
       <ele>30.47</ele>
       <time>2014-11-08T20:22:23Z</time>
      </trkpt>
      <trkpt lat="50.626155" lon="2.443676">
       <ele>30.05</ele>
       <time>2014-11-08T20:22:27Z</time>
      </trkpt>
      <trkpt lat="50.626121" lon="2.443608">
       <ele>29.89</ele>
       <time>2014-11-08T20:22:29Z</time>
      </trkpt>
      <trkpt lat="50.626037" lon="2.443525">
       <ele>29.65</ele>
       <time>2014-11-08T20:22:32Z</time>
      </trkpt>
      <trkpt lat="50.625942" lon="2.443499">
       <ele>29.5</ele>
       <time>2014-11-08T20:22:36Z</time>
      </trkpt>
      <trkpt lat="50.625923" lon="2.443154">
       <ele>28.82</ele>
       <time>2014-11-08T20:22:43Z</time>
      </trkpt>
      <trkpt lat="50.625999" lon="2.442708">
       <ele>28</ele>
       <time>2014-11-08T20:22:53Z</time>
      </trkpt>
      <trkpt lat="50.626525" lon="2.441576">
       <ele>24.36</ele>
       <time>2014-11-08T20:23:22Z</time>
      </trkpt>
      <trkpt lat="50.627063" lon="2.439702">
       <ele>21.34</ele>
       <time>2014-11-08T20:24:06Z</time>
      </trkpt>
      <trkpt lat="50.626983" lon="2.439985">
       <ele>21.61</ele>
       <time>2014-11-08T20:24:12Z</time>
      </trkpt>
      <trkpt lat="50.627880" lon="2.439903">
       <ele>20.95</ele>
       <time>2014-11-08T20:24:42Z</time>
      </trkpt>
      <trkpt lat="50.628044" lon="2.439815">
       <ele>20.86</ele>
       <time>2014-11-08T20:24:48Z</time>
      </trkpt>
      <trkpt lat="50.628639" lon="2.439608">
       <ele>20.16</ele>
       <time>2014-11-08T20:25:09Z</time>
      </trkpt>
      <trkpt lat="50.629531" lon="2.439222">
       <ele>19.04</ele>
       <time>2014-11-08T20:25:39Z</time>
      </trkpt>
      <trkpt lat="50.629589" lon="2.438389">
       <ele>19.46</ele>
       <time>2014-11-08T20:25:57Z</time>
      </trkpt>
      <trkpt lat="50.629402" lon="2.437638">
       <ele>19.12</ele>
       <time>2014-11-08T20:26:14Z</time>
      </trkpt>
      <trkpt lat="50.629482" lon="2.437216">
       <ele>18.66</ele>
       <time>2014-11-08T20:26:24Z</time>
      </trkpt>
      <trkpt lat="50.629791" lon="2.436985">
       <ele>18.38</ele>
       <time>2014-11-08T20:26:35Z</time>
      </trkpt>
      <trkpt lat="50.630329" lon="2.436960">
       <ele>18.49</ele>
       <time>2014-11-08T20:26:53Z</time>
      </trkpt>
      <trkpt lat="50.631134" lon="2.436954">
       <ele>18.69</ele>
       <time>2014-11-08T20:27:20Z</time>
      </trkpt>
      <trkpt lat="50.631702" lon="2.436978">
       <ele>18.73</ele>
       <time>2014-11-08T20:27:39Z</time>
      </trkpt>
      <trkpt lat="50.632011" lon="2.436975">
       <ele>18.59</ele>
       <time>2014-11-08T20:27:49Z</time>
      </trkpt>
      <trkpt lat="50.632156" lon="2.436924">
       <ele>18.44</ele>
       <time>2014-11-08T20:27:54Z</time>
      </trkpt>
      <trkpt lat="50.633701" lon="2.435734">
       <ele>19.1</ele>
       <time>2014-11-08T20:28:51Z</time>
      </trkpt>
      <trkpt lat="50.633888" lon="2.435462">
       <ele>18.82</ele>
       <time>2014-11-08T20:29:00Z</time>
      </trkpt>
      <trkpt lat="50.634368" lon="2.431591">
       <ele>17.91</ele>
       <time>2014-11-08T20:30:23Z</time>
      </trkpt>
      <trkpt lat="50.634437" lon="2.430521">
       <ele>16.63</ele>
       <time>2014-11-08T20:30:46Z</time>
      </trkpt>
      <trkpt lat="50.635921" lon="2.423223">
       <ele>18.1</ele>
       <time>2014-11-08T20:33:28Z</time>
      </trkpt>
      <trkpt lat="50.636314" lon="2.421375">
       <ele>18.48</ele>
       <time>2014-11-08T20:34:10Z</time>
      </trkpt>
      <trkpt lat="50.636306" lon="2.421108">
       <ele>18.52</ele>
       <time>2014-11-08T20:34:15Z</time>
      </trkpt>
      <trkpt lat="50.636127" lon="2.420696">
       <ele>18.35</ele>
       <time>2014-11-08T20:34:26Z</time>
      </trkpt>
      <trkpt lat="50.636104" lon="2.420488">
       <ele>18.33</ele>
       <time>2014-11-08T20:34:30Z</time>
      </trkpt>
      <trkpt lat="50.636138" lon="2.420351">
       <ele>18.37</ele>
       <time>2014-11-08T20:34:33Z</time>
      </trkpt>
      <trkpt lat="50.636833" lon="2.418574">
       <ele>18.86</ele>
       <time>2014-11-08T20:35:18Z</time>
      </trkpt>
      <trkpt lat="50.637622" lon="2.416270">
       <ele>19.92</ele>
       <time>2014-11-08T20:36:13Z</time>
      </trkpt>
      <trkpt lat="50.637889" lon="2.414896">
       <ele>21</ele>
       <time>2014-11-08T20:36:43Z</time>
      </trkpt>
      <trkpt lat="50.638019" lon="2.414098">
       <ele>21.08</ele>
       <time>2014-11-08T20:37:01Z</time>
      </trkpt>
      <trkpt lat="50.638023" lon="2.412816">
       <ele>22</ele>
       <time>2014-11-08T20:37:28Z</time>
      </trkpt>
      <trkpt lat="50.638069" lon="2.412244">
       <ele>21.69</ele>
       <time>2014-11-08T20:37:40Z</time>
      </trkpt>
      <trkpt lat="50.638870" lon="2.410926">
       <ele>21.64</ele>
       <time>2014-11-08T20:38:19Z</time>
      </trkpt>
      <trkpt lat="50.639003" lon="2.410820">
       <ele>21.84</ele>
       <time>2014-11-08T20:38:24Z</time>
      </trkpt>
      <trkpt lat="50.639457" lon="2.410696">
       <ele>22.56</ele>
       <time>2014-11-08T20:38:39Z</time>
      </trkpt>
      <trkpt lat="50.640396" lon="2.406867">
       <ele>23.68</ele>
       <time>2014-11-08T20:40:06Z</time>
      </trkpt>
      <trkpt lat="50.640613" lon="2.406160">
       <ele>23.98</ele>
       <time>2014-11-08T20:40:23Z</time>
      </trkpt>
      <trkpt lat="50.640697" lon="2.406022">
       <ele>23.97</ele>
       <time>2014-11-08T20:40:27Z</time>
      </trkpt>
      <trkpt lat="50.640758" lon="2.406121">
       <ele>23.78</ele>
       <time>2014-11-08T20:40:30Z</time>
      </trkpt>
      <trkpt lat="50.640808" lon="2.406152">
       <ele>23.66</ele>
       <time>2014-11-08T20:40:31Z</time>
      </trkpt>
      <trkpt lat="50.640872" lon="2.406157">
       <ele>23.53</ele>
       <time>2014-11-08T20:40:33Z</time>
      </trkpt>
      <trkpt lat="50.640914" lon="2.406136">
       <ele>23.48</ele>
       <time>2014-11-08T20:40:35Z</time>
      </trkpt>
      <trkpt lat="50.640972" lon="2.406068">
       <ele>23.43</ele>
       <time>2014-11-08T20:40:37Z</time>
      </trkpt>
      <trkpt lat="50.641014" lon="2.405904">
       <ele>23.5</ele>
       <time>2014-11-08T20:40:41Z</time>
      </trkpt>
      <trkpt lat="50.641162" lon="2.405930">
       <ele>23.14</ele>
       <time>2014-11-08T20:40:46Z</time>
      </trkpt>
      <trkpt lat="50.641376" lon="2.405925">
       <ele>22.66</ele>
       <time>2014-11-08T20:40:53Z</time>
      </trkpt>
      <trkpt lat="50.641586" lon="2.405220">
       <ele>22.19</ele>
       <time>2014-11-08T20:41:10Z</time>
      </trkpt>
      <trkpt lat="50.641693" lon="2.404938">
       <ele>22.01</ele>
       <time>2014-11-08T20:41:17Z</time>
      </trkpt>
      <trkpt lat="50.641803" lon="2.404726">
       <ele>21.95</ele>
       <time>2014-11-08T20:41:22Z</time>
      </trkpt>
      <trkpt lat="50.642089" lon="2.404304">
       <ele>21.4</ele>
       <time>2014-11-08T20:41:36Z</time>
      </trkpt>
      <trkpt lat="50.642379" lon="2.403923">
       <ele>20.73</ele>
       <time>2014-11-08T20:41:48Z</time>
      </trkpt>
      <trkpt lat="50.643436" lon="2.403178">
       <ele>18.41</ele>
       <time>2014-11-08T20:42:27Z</time>
      </trkpt>
      <trkpt lat="50.643699" lon="2.403026">
       <ele>19.09</ele>
       <time>2014-11-08T20:42:36Z</time>
      </trkpt>
      <trkpt lat="50.644050" lon="2.402879">
       <ele>19.8</ele>
       <time>2014-11-08T20:42:48Z</time>
      </trkpt>
      <trkpt lat="50.644096" lon="2.402734">
       <ele>19.89</ele>
       <time>2014-11-08T20:42:52Z</time>
      </trkpt>
      <trkpt lat="50.644172" lon="2.402681">
       <ele>19.99</ele>
       <time>2014-11-08T20:42:54Z</time>
      </trkpt>
      <trkpt lat="50.644630" lon="2.402460">
       <ele>18.87</ele>
       <time>2014-11-08T20:43:10Z</time>
      </trkpt>
      <trkpt lat="50.645080" lon="2.402302">
       <ele>18.07</ele>
       <time>2014-11-08T20:43:26Z</time>
      </trkpt>
      <trkpt lat="50.645366" lon="2.402261">
       <ele>18.31</ele>
       <time>2014-11-08T20:43:35Z</time>
      </trkpt>
      <trkpt lat="50.645801" lon="2.402231">
       <ele>18.65</ele>
       <time>2014-11-08T20:43:50Z</time>
      </trkpt>
      <trkpt lat="50.646263" lon="2.402312">
       <ele>19.01</ele>
       <time>2014-11-08T20:44:05Z</time>
      </trkpt>
      <trkpt lat="50.646411" lon="2.402378">
       <ele>19.06</ele>
       <time>2014-11-08T20:44:11Z</time>
      </trkpt>
      <trkpt lat="50.649211" lon="2.402997">
       <ele>22.04</ele>
       <time>2014-11-08T20:45:45Z</time>
      </trkpt>
      <trkpt lat="50.651115" lon="2.403538">
       <ele>29.01</ele>
       <time>2014-11-08T20:46:49Z</time>
      </trkpt>
      <trkpt lat="50.653484" lon="2.404170">
       <ele>25.18</ele>
       <time>2014-11-08T20:48:10Z</time>
      </trkpt>
      <trkpt lat="50.654434" lon="2.404417">
       <ele>25.26</ele>
       <time>2014-11-08T20:48:42Z</time>
      </trkpt>
      <trkpt lat="50.655017" lon="2.404545">
       <ele>23.49</ele>
       <time>2014-11-08T20:49:01Z</time>
      </trkpt>
      <trkpt lat="50.655597" lon="2.404716">
       <ele>21.66</ele>
       <time>2014-11-08T20:49:21Z</time>
      </trkpt>
      <trkpt lat="50.655933" lon="2.404787">
       <ele>21.3</ele>
       <time>2014-11-08T20:49:32Z</time>
      </trkpt>
      <trkpt lat="50.656352" lon="2.404823">
       <ele>22.61</ele>
       <time>2014-11-08T20:49:46Z</time>
      </trkpt>
      <trkpt lat="50.656757" lon="2.404793">
       <ele>23.37</ele>
       <time>2014-11-08T20:50:00Z</time>
      </trkpt>
      <trkpt lat="50.657230" lon="2.404725">
       <ele>22.66</ele>
       <time>2014-11-08T20:50:16Z</time>
      </trkpt>
      <trkpt lat="50.658329" lon="2.404356">
       <ele>24.08</ele>
       <time>2014-11-08T20:50:53Z</time>
      </trkpt>
      <trkpt lat="50.658946" lon="2.404129">
       <ele>25</ele>
       <time>2014-11-08T20:51:14Z</time>
      </trkpt>
      <trkpt lat="50.659465" lon="2.403985">
       <ele>23.52</ele>
       <time>2014-11-08T20:51:32Z</time>
      </trkpt>
      <trkpt lat="50.659755" lon="2.403928">
       <ele>22.28</ele>
       <time>2014-11-08T20:51:42Z</time>
      </trkpt>
      <trkpt lat="50.660736" lon="2.403903">
       <ele>21.03</ele>
       <time>2014-11-08T20:52:14Z</time>
      </trkpt>
      <trkpt lat="50.663082" lon="2.403970">
       <ele>21.53</ele>
       <time>2014-11-08T20:53:33Z</time>
      </trkpt>
      <trkpt lat="50.663150" lon="2.403201">
       <ele>20.9</ele>
       <time>2014-11-08T20:53:49Z</time>
      </trkpt>
      <trkpt lat="50.663616" lon="2.400160">
       <ele>24.28</ele>
       <time>2014-11-08T20:54:55Z</time>
      </trkpt>
      <trkpt lat="50.663669" lon="2.399667">
       <ele>25</ele>
       <time>2014-11-08T20:55:06Z</time>
      </trkpt>
      <trkpt lat="50.663684" lon="2.398962">
       <ele>25.79</ele>
       <time>2014-11-08T20:55:21Z</time>
      </trkpt>
      <trkpt lat="50.663604" lon="2.397248">
       <ele>26.94</ele>
       <time>2014-11-08T20:55:57Z</time>
      </trkpt>
      <trkpt lat="50.663719" lon="2.395406">
       <ele>28.82</ele>
       <time>2014-11-08T20:56:36Z</time>
      </trkpt>
      <trkpt lat="50.663745" lon="2.394588">
       <ele>29.5</ele>
       <time>2014-11-08T20:56:54Z</time>
      </trkpt>
      <trkpt lat="50.663822" lon="2.394221">
       <ele>29.41</ele>
       <time>2014-11-08T20:57:02Z</time>
      </trkpt>
      <trkpt lat="50.663875" lon="2.394130">
       <ele>29.35</ele>
       <time>2014-11-08T20:57:04Z</time>
      </trkpt>
      <trkpt lat="50.664051" lon="2.394010">
       <ele>29.14</ele>
       <time>2014-11-08T20:57:11Z</time>
      </trkpt>
      <trkpt lat="50.664901" lon="2.393912">
       <ele>26.97</ele>
       <time>2014-11-08T20:57:39Z</time>
      </trkpt>
      <trkpt lat="50.666698" lon="2.392364">
       <ele>23.84</ele>
       <time>2014-11-08T20:58:48Z</time>
      </trkpt>
      <trkpt lat="50.666893" lon="2.392198">
       <ele>23.64</ele>
       <time>2014-11-08T20:58:55Z</time>
      </trkpt>
      <trkpt lat="50.667476" lon="2.391925">
       <ele>23.31</ele>
       <time>2014-11-08T20:59:15Z</time>
      </trkpt>
      <trkpt lat="50.667583" lon="2.391858">
       <ele>23.28</ele>
       <time>2014-11-08T20:59:19Z</time>
      </trkpt>
      <trkpt lat="50.667739" lon="2.391891">
       <ele>23.4</ele>
       <time>2014-11-08T20:59:24Z</time>
      </trkpt>
      <trkpt lat="50.668415" lon="2.392167">
       <ele>23.75</ele>
       <time>2014-11-08T20:59:48Z</time>
      </trkpt>
      <trkpt lat="50.668567" lon="2.392210">
       <ele>24.37</ele>
       <time>2014-11-08T20:59:53Z</time>
      </trkpt>
      <trkpt lat="50.668697" lon="2.392225">
       <ele>24.93</ele>
       <time>2014-11-08T20:59:57Z</time>
      </trkpt>
      <trkpt lat="50.668758" lon="2.392147">
       <ele>25.25</ele>
       <time>2014-11-08T21:00:00Z</time>
      </trkpt>
      <trkpt lat="50.668991" lon="2.391613">
       <ele>26.32</ele>
       <time>2014-11-08T21:00:14Z</time>
      </trkpt>
      <trkpt lat="50.669342" lon="2.391083">
       <ele>27.77</ele>
       <time>2014-11-08T21:00:30Z</time>
      </trkpt>
      <trkpt lat="50.669776" lon="2.390573">
       <ele>30.98</ele>
       <time>2014-11-08T21:00:48Z</time>
      </trkpt>
      <trkpt lat="50.670585" lon="2.389889">
       <ele>33.1</ele>
       <time>2014-11-08T21:01:18Z</time>
      </trkpt>
      <trkpt lat="50.673347" lon="2.386132">
       <ele>36.03</ele>
       <time>2014-11-08T21:03:20Z</time>
      </trkpt>
      <trkpt lat="50.675193" lon="2.383764">
       <ele>38.34</ele>
       <time>2014-11-08T21:04:39Z</time>
      </trkpt>
      <trkpt lat="50.676128" lon="2.382766">
       <ele>38.4</ele>
       <time>2014-11-08T21:05:17Z</time>
      </trkpt>
      <trkpt lat="50.676284" lon="2.382553">
       <ele>37.95</ele>
       <time>2014-11-08T21:05:24Z</time>
      </trkpt>
      <trkpt lat="50.677829" lon="2.380690">
       <ele>34.52</ele>
       <time>2014-11-08T21:06:29Z</time>
      </trkpt>
      <trkpt lat="50.679058" lon="2.379451">
       <ele>39.71</ele>
       <time>2014-11-08T21:07:18Z</time>
      </trkpt>
      <trkpt lat="50.679382" lon="2.379084">
       <ele>42.06</ele>
       <time>2014-11-08T21:07:31Z</time>
      </trkpt>
      <trkpt lat="50.680366" lon="2.378113">
       <ele>47.47</ele>
       <time>2014-11-08T21:08:10Z</time>
      </trkpt>
      <trkpt lat="50.682853" lon="2.375358">
       <ele>54.72</ele>
       <time>2014-11-08T21:09:51Z</time>
      </trkpt>
      <trkpt lat="50.683753" lon="2.374547">
       <ele>53.49</ele>
       <time>2014-11-08T21:10:26Z</time>
      </trkpt>
      <trkpt lat="50.684677" lon="2.374063">
       <ele>49.63</ele>
       <time>2014-11-08T21:10:58Z</time>
      </trkpt>
      <trkpt lat="50.685199" lon="2.373584">
       <ele>47.5</ele>
       <time>2014-11-08T21:11:18Z</time>
      </trkpt>
      <trkpt lat="50.685558" lon="2.373068">
       <ele>45.86</ele>
       <time>2014-11-08T21:11:34Z</time>
      </trkpt>
      <trkpt lat="50.687507" lon="2.369076">
       <ele>42.06</ele>
       <time>2014-11-08T21:13:21Z</time>
      </trkpt>
      <trkpt lat="50.688659" lon="2.366451">
       <ele>40.24</ele>
       <time>2014-11-08T21:14:28Z</time>
      </trkpt>
      <trkpt lat="50.689022" lon="2.365852">
       <ele>39.67</ele>
       <time>2014-11-08T21:14:46Z</time>
      </trkpt>
      <trkpt lat="50.690258" lon="2.363959">
       <ele>40.57</ele>
       <time>2014-11-08T21:15:43Z</time>
      </trkpt>
      <trkpt lat="50.690704" lon="2.363109">
       <ele>40.78</ele>
       <time>2014-11-08T21:16:07Z</time>
      </trkpt>
      <trkpt lat="50.692249" lon="2.360867">
       <ele>37.56</ele>
       <time>2014-11-08T21:17:17Z</time>
      </trkpt>
      <trkpt lat="50.692440" lon="2.360548">
       <ele>37.49</ele>
       <time>2014-11-08T21:17:26Z</time>
      </trkpt>
      <trkpt lat="50.692607" lon="2.360116">
       <ele>37.47</ele>
       <time>2014-11-08T21:17:37Z</time>
      </trkpt>
      <trkpt lat="50.692661" lon="2.359746">
       <ele>37.61</ele>
       <time>2014-11-08T21:17:45Z</time>
      </trkpt>
      <trkpt lat="50.692649" lon="2.359436">
       <ele>37.89</ele>
       <time>2014-11-08T21:17:51Z</time>
      </trkpt>
      <trkpt lat="50.692543" lon="2.358494">
       <ele>40.36</ele>
       <time>2014-11-08T21:18:12Z</time>
      </trkpt>
      <trkpt lat="50.692535" lon="2.358215">
       <ele>40.94</ele>
       <time>2014-11-08T21:18:18Z</time>
      </trkpt>
      <trkpt lat="50.692535" lon="2.357928">
       <ele>41.32</ele>
       <time>2014-11-08T21:18:24Z</time>
      </trkpt>
      <trkpt lat="50.692562" lon="2.357737">
       <ele>41.45</ele>
       <time>2014-11-08T21:18:28Z</time>
      </trkpt>
      <trkpt lat="50.692619" lon="2.357597">
       <ele>41.42</ele>
       <time>2014-11-08T21:18:31Z</time>
      </trkpt>
      <trkpt lat="50.692665" lon="2.357517">
       <ele>41.38</ele>
       <time>2014-11-08T21:18:34Z</time>
      </trkpt>
      <trkpt lat="50.693130" lon="2.357134">
       <ele>40.38</ele>
       <time>2014-11-08T21:18:51Z</time>
      </trkpt>
      <trkpt lat="50.693233" lon="2.357007">
       <ele>40.09</ele>
       <time>2014-11-08T21:18:55Z</time>
      </trkpt>
      <trkpt lat="50.693290" lon="2.356985">
       <ele>39.83</ele>
       <time>2014-11-08T21:18:57Z</time>
      </trkpt>
      <trkpt lat="50.693328" lon="2.356920">
       <ele>39.72</ele>
       <time>2014-11-08T21:18:59Z</time>
      </trkpt>
      <trkpt lat="50.693439" lon="2.356837">
       <ele>39.49</ele>
       <time>2014-11-08T21:19:03Z</time>
      </trkpt>
      <trkpt lat="50.695201" lon="2.355050">
       <ele>38.46</ele>
       <time>2014-11-08T21:20:13Z</time>
      </trkpt>
      <trkpt lat="50.695892" lon="2.354218">
       <ele>37</ele>
       <time>2014-11-08T21:20:42Z</time>
      </trkpt>
      <trkpt lat="50.696544" lon="2.353348">
       <ele>37.14</ele>
       <time>2014-11-08T21:21:11Z</time>
      </trkpt>
      <trkpt lat="50.698081" lon="2.351011">
       <ele>38.63</ele>
       <time>2014-11-08T21:22:22Z</time>
      </trkpt>
      <trkpt lat="50.697933" lon="2.350663">
       <ele>39.34</ele>
       <time>2014-11-08T21:22:31Z</time>
      </trkpt>
      <trkpt lat="50.698081" lon="2.351011">
       <ele>38.63</ele>
       <time>2014-11-08T21:22:40Z</time>
      </trkpt>
      <trkpt lat="50.698280" lon="2.350676">
       <ele>38.18</ele>
       <time>2014-11-08T21:22:49Z</time>
      </trkpt>
      <trkpt lat="50.699031" lon="2.349092">
       <ele>38.43</ele>
       <time>2014-11-08T21:23:31Z</time>
      </trkpt>
      <trkpt lat="50.699340" lon="2.348649">
       <ele>38.36</ele>
       <time>2014-11-08T21:23:45Z</time>
      </trkpt>
      <trkpt lat="50.699729" lon="2.348181">
       <ele>37.47</ele>
       <time>2014-11-08T21:24:01Z</time>
      </trkpt>
      <trkpt lat="50.699810" lon="2.348164">
       <ele>37.25</ele>
       <time>2014-11-08T21:24:04Z</time>
      </trkpt>
      <trkpt lat="50.699924" lon="2.348261">
       <ele>37.09</ele>
       <time>2014-11-08T21:24:08Z</time>
      </trkpt>
      <trkpt lat="50.700077" lon="2.348495">
       <ele>37.01</ele>
       <time>2014-11-08T21:24:16Z</time>
      </trkpt>
      <trkpt lat="50.700214" lon="2.349121">
       <ele>37.43</ele>
       <time>2014-11-08T21:24:30Z</time>
      </trkpt>
      <trkpt lat="50.700325" lon="2.349472">
       <ele>37.14</ele>
       <time>2014-11-08T21:24:38Z</time>
      </trkpt>
      <trkpt lat="50.700489" lon="2.349817">
       <ele>36.96</ele>
       <time>2014-11-08T21:24:47Z</time>
      </trkpt>
      <trkpt lat="50.702384" lon="2.353193">
       <ele>28.35</ele>
       <time>2014-11-08T21:26:22Z</time>
      </trkpt>
      <trkpt lat="50.703125" lon="2.352195">
       <ele>28.8</ele>
       <time>2014-11-08T21:26:55Z</time>
      </trkpt>
      <trkpt lat="50.703647" lon="2.351438">
       <ele>29.28</ele>
       <time>2014-11-08T21:27:18Z</time>
      </trkpt>
      <trkpt lat="50.703834" lon="2.351119">
       <ele>29.33</ele>
       <time>2014-11-08T21:27:28Z</time>
      </trkpt>
      <trkpt lat="50.704132" lon="2.350487">
       <ele>29.56</ele>
       <time>2014-11-08T21:27:44Z</time>
      </trkpt>
      <trkpt lat="50.704788" lon="2.349229">
       <ele>26.8</ele>
       <time>2014-11-08T21:28:19Z</time>
      </trkpt>
      <trkpt lat="50.704990" lon="2.348875">
       <ele>27.69</ele>
       <time>2014-11-08T21:28:29Z</time>
      </trkpt>
      <trkpt lat="50.705169" lon="2.348601">
       <ele>28.49</ele>
       <time>2014-11-08T21:28:37Z</time>
      </trkpt>
      <trkpt lat="50.705387" lon="2.348334">
       <ele>29</ele>
       <time>2014-11-08T21:28:46Z</time>
      </trkpt>
      <trkpt lat="50.706356" lon="2.347367">
       <ele>29.31</ele>
       <time>2014-11-08T21:29:25Z</time>
      </trkpt>
      <trkpt lat="50.707038" lon="2.346750">
       <ele>29.4</ele>
       <time>2014-11-08T21:29:51Z</time>
      </trkpt>
      <trkpt lat="50.707389" lon="2.346390">
       <ele>29.82</ele>
       <time>2014-11-08T21:30:05Z</time>
      </trkpt>
      <trkpt lat="50.707988" lon="2.345700">
       <ele>32</ele>
       <time>2014-11-08T21:30:29Z</time>
      </trkpt>
      <trkpt lat="50.708091" lon="2.345678">
       <ele>32.39</ele>
       <time>2014-11-08T21:30:33Z</time>
      </trkpt>
      <trkpt lat="50.708217" lon="2.343961">
       <ele>28.79</ele>
       <time>2014-11-08T21:31:09Z</time>
      </trkpt>
      <trkpt lat="50.708309" lon="2.343251">
       <ele>28.22</ele>
       <time>2014-11-08T21:31:25Z</time>
      </trkpt>
      <trkpt lat="50.708412" lon="2.342806">
       <ele>29.28</ele>
       <time>2014-11-08T21:31:35Z</time>
      </trkpt>
      <trkpt lat="50.708541" lon="2.342514">
       <ele>29.73</ele>
       <time>2014-11-08T21:31:42Z</time>
      </trkpt>
      <trkpt lat="50.708576" lon="2.342350">
       <ele>29.66</ele>
       <time>2014-11-08T21:31:46Z</time>
      </trkpt>
      <trkpt lat="50.708908" lon="2.341470">
       <ele>28.64</ele>
       <time>2014-11-08T21:32:08Z</time>
      </trkpt>
      <trkpt lat="50.709053" lon="2.341181">
       <ele>28.62</ele>
       <time>2014-11-08T21:32:15Z</time>
      </trkpt>
      <trkpt lat="50.709205" lon="2.340961">
       <ele>28.85</ele>
       <time>2014-11-08T21:32:22Z</time>
      </trkpt>
      <trkpt lat="50.710674" lon="2.339730">
       <ele>29.19</ele>
       <time>2014-11-08T21:33:18Z</time>
      </trkpt>
      <trkpt lat="50.711219" lon="2.339107">
       <ele>29.03</ele>
       <time>2014-11-08T21:33:40Z</time>
      </trkpt>
      <trkpt lat="50.712123" lon="2.337829">
       <ele>28.96</ele>
       <time>2014-11-08T21:34:21Z</time>
      </trkpt>
      <trkpt lat="50.712654" lon="2.337239">
       <ele>28.26</ele>
       <time>2014-11-08T21:34:42Z</time>
      </trkpt>
      <trkpt lat="50.712913" lon="2.337007">
       <ele>27.12</ele>
       <time>2014-11-08T21:34:52Z</time>
      </trkpt>
      <trkpt lat="50.713199" lon="2.336642">
       <ele>25.5</ele>
       <time>2014-11-08T21:35:05Z</time>
      </trkpt>
      <trkpt lat="50.713546" lon="2.335886">
       <ele>26.71</ele>
       <time>2014-11-08T21:35:24Z</time>
      </trkpt>
      <trkpt lat="50.713966" lon="2.334793">
       <ele>30.76</ele>
       <time>2014-11-08T21:35:51Z</time>
      </trkpt>
      <trkpt lat="50.714393" lon="2.334089">
       <ele>30.73</ele>
       <time>2014-11-08T21:36:12Z</time>
      </trkpt>
      <trkpt lat="50.714954" lon="2.333220">
       <ele>30.05</ele>
       <time>2014-11-08T21:36:38Z</time>
      </trkpt>
      <trkpt lat="50.715461" lon="2.332314">
       <ele>29.45</ele>
       <time>2014-11-08T21:37:04Z</time>
      </trkpt>
      <trkpt lat="50.715995" lon="2.331186">
       <ele>28.89</ele>
       <time>2014-11-08T21:37:33Z</time>
      </trkpt>
      <trkpt lat="50.716388" lon="2.330126">
       <ele>28.62</ele>
       <time>2014-11-08T21:37:59Z</time>
      </trkpt>
      <trkpt lat="50.716808" lon="2.329144">
       <ele>27.98</ele>
       <time>2014-11-08T21:38:24Z</time>
      </trkpt>
      <trkpt lat="50.717136" lon="2.328509">
       <ele>27.66</ele>
       <time>2014-11-08T21:38:42Z</time>
      </trkpt>
      <trkpt lat="50.717517" lon="2.327718">
       <ele>27.98</ele>
       <time>2014-11-08T21:39:03Z</time>
      </trkpt>
      <trkpt lat="50.717735" lon="2.327147">
       <ele>27.6</ele>
       <time>2014-11-08T21:39:17Z</time>
      </trkpt>
      <trkpt lat="50.718288" lon="2.325901">
       <ele>26.11</ele>
       <time>2014-11-08T21:39:49Z</time>
      </trkpt>
      <trkpt lat="50.720046" lon="2.322215">
       <ele>30.02</ele>
       <time>2014-11-08T21:41:26Z</time>
      </trkpt>
      <trkpt lat="50.720298" lon="2.321645">
       <ele>30.35</ele>
       <time>2014-11-08T21:41:41Z</time>
      </trkpt>
      <trkpt lat="50.720912" lon="2.319916">
       <ele>30.9</ele>
       <time>2014-11-08T21:42:23Z</time>
      </trkpt>
      <trkpt lat="50.721843" lon="2.317662">
       <ele>31.63</ele>
       <time>2014-11-08T21:43:20Z</time>
      </trkpt>
      <trkpt lat="50.722957" lon="2.315653">
       <ele>30.83</ele>
       <time>2014-11-08T21:44:16Z</time>
      </trkpt>
      <trkpt lat="50.723903" lon="2.313812">
       <ele>32.55</ele>
       <time>2014-11-08T21:45:06Z</time>
      </trkpt>
      <trkpt lat="50.724559" lon="2.311623">
       <ele>27.5</ele>
       <time>2014-11-08T21:45:58Z</time>
      </trkpt>
      <trkpt lat="50.725196" lon="2.310328">
       <ele>27.17</ele>
       <time>2014-11-08T21:46:32Z</time>
      </trkpt>
      <trkpt lat="50.725387" lon="2.309869">
       <ele>26.54</ele>
       <time>2014-11-08T21:46:44Z</time>
      </trkpt>
      <trkpt lat="50.725463" lon="2.309746">
       <ele>26.33</ele>
       <time>2014-11-08T21:46:47Z</time>
      </trkpt>
      <trkpt lat="50.726196" lon="2.308295">
       <ele>24.45</ele>
       <time>2014-11-08T21:47:27Z</time>
      </trkpt>
      <trkpt lat="50.726249" lon="2.307856">
       <ele>23.07</ele>
       <time>2014-11-08T21:47:36Z</time>
      </trkpt>
      <trkpt lat="50.727283" lon="2.308135">
       <ele>23.07</ele>
       <time>2014-11-08T21:48:11Z</time>
      </trkpt>
      <trkpt lat="50.727485" lon="2.308161">
       <ele>23.01</ele>
       <time>2014-11-08T21:48:18Z</time>
      </trkpt>
      <trkpt lat="50.727603" lon="2.308067">
       <ele>22.09</ele>
       <time>2014-11-08T21:48:22Z</time>
      </trkpt>
      <trkpt lat="50.727703" lon="2.307894">
       <ele>21.17</ele>
       <time>2014-11-08T21:48:27Z</time>
      </trkpt>
      <trkpt lat="50.727912" lon="2.307408">
       <ele>19.03</ele>
       <time>2014-11-08T21:48:40Z</time>
      </trkpt>
      <trkpt lat="50.728191" lon="2.306818">
       <ele>17.44</ele>
       <time>2014-11-08T21:48:55Z</time>
      </trkpt>
      <trkpt lat="50.728466" lon="2.306380">
       <ele>16.3</ele>
       <time>2014-11-08T21:49:08Z</time>
      </trkpt>
      <trkpt lat="50.728675" lon="2.306302">
       <ele>14.23</ele>
       <time>2014-11-08T21:49:15Z</time>
      </trkpt>
      <trkpt lat="50.728981" lon="2.305577">
       <ele>11.67</ele>
       <time>2014-11-08T21:49:34Z</time>
      </trkpt>
      <trkpt lat="50.729644" lon="2.304652">
       <ele>12.24</ele>
       <time>2014-11-08T21:50:03Z</time>
      </trkpt>
      <trkpt lat="50.729934" lon="2.304095">
       <ele>12.91</ele>
       <time>2014-11-08T21:50:19Z</time>
      </trkpt>
      <trkpt lat="50.730281" lon="2.303719">
       <ele>13</ele>
       <time>2014-11-08T21:50:33Z</time>
      </trkpt>
      <trkpt lat="50.731487" lon="2.302644">
       <ele>13.6</ele>
       <time>2014-11-08T21:51:19Z</time>
      </trkpt>
      <trkpt lat="50.732086" lon="2.302025">
       <ele>12.34</ele>
       <time>2014-11-08T21:51:43Z</time>
      </trkpt>
      <trkpt lat="50.732425" lon="2.301600">
       <ele>11.49</ele>
       <time>2014-11-08T21:51:57Z</time>
      </trkpt>
      <trkpt lat="50.733272" lon="2.300614">
       <ele>9.25</ele>
       <time>2014-11-08T21:52:32Z</time>
      </trkpt>
      <trkpt lat="50.733287" lon="2.300559">
       <ele>9.18</ele>
       <time>2014-11-08T21:52:33Z</time>
      </trkpt>
      <trkpt lat="50.733348" lon="2.300522">
       <ele>8.97</ele>
       <time>2014-11-08T21:52:36Z</time>
      </trkpt>
      <trkpt lat="50.733901" lon="2.299901">
       <ele>7.64</ele>
       <time>2014-11-08T21:52:58Z</time>
      </trkpt>
      <trkpt lat="50.735256" lon="2.298330">
       <ele>9.3</ele>
       <time>2014-11-08T21:53:54Z</time>
      </trkpt>
      <trkpt lat="50.736541" lon="2.296988">
       <ele>7.54</ele>
       <time>2014-11-08T21:54:46Z</time>
      </trkpt>
      <trkpt lat="50.736560" lon="2.296791">
       <ele>7.28</ele>
       <time>2014-11-08T21:54:50Z</time>
      </trkpt>
      <trkpt lat="50.736801" lon="2.296487">
       <ele>6.84</ele>
       <time>2014-11-08T21:55:00Z</time>
      </trkpt>
      <trkpt lat="50.737396" lon="2.295675">
       <ele>6.27</ele>
       <time>2014-11-08T21:55:26Z</time>
      </trkpt>
      <trkpt lat="50.737716" lon="2.295006">
       <ele>6.99</ele>
       <time>2014-11-08T21:55:44Z</time>
      </trkpt>
      <trkpt lat="50.737880" lon="2.294487">
       <ele>7</ele>
       <time>2014-11-08T21:55:56Z</time>
      </trkpt>
      <trkpt lat="50.737922" lon="2.294266">
       <ele>7</ele>
       <time>2014-11-08T21:56:01Z</time>
      </trkpt>
      <trkpt lat="50.738006" lon="2.294260">
       <ele>7</ele>
       <time>2014-11-08T21:56:04Z</time>
      </trkpt>
      <trkpt lat="50.738052" lon="2.294054">
       <ele>6.96</ele>
       <time>2014-11-08T21:56:09Z</time>
      </trkpt>
      <trkpt lat="50.738090" lon="2.292613">
       <ele>4.85</ele>
       <time>2014-11-08T21:56:39Z</time>
      </trkpt>
      <trkpt lat="50.738227" lon="2.289443">
       <ele>7.3</ele>
       <time>2014-11-08T21:57:46Z</time>
      </trkpt>
      <trkpt lat="50.738021" lon="2.288959">
       <ele>8.78</ele>
       <time>2014-11-08T21:57:59Z</time>
      </trkpt>
      <trkpt lat="50.736694" lon="2.287869">
       <ele>10.43</ele>
       <time>2014-11-08T21:58:49Z</time>
      </trkpt>
      <trkpt lat="50.736621" lon="2.287745">
       <ele>10.31</ele>
       <time>2014-11-08T21:58:52Z</time>
      </trkpt>
      <trkpt lat="50.736644" lon="2.287688">
       <ele>10.23</ele>
       <time>2014-11-08T21:58:54Z</time>
      </trkpt>
      <trkpt lat="50.736629" lon="2.287573">
       <ele>10.09</ele>
       <time>2014-11-08T21:58:56Z</time>
      </trkpt>
      <trkpt lat="50.736610" lon="2.287539">
       <ele>10.05</ele>
       <time>2014-11-08T21:58:57Z</time>
      </trkpt>
      <trkpt lat="50.736835" lon="2.287007">
       <ele>9.88</ele>
       <time>2014-11-08T21:59:10Z</time>
      </trkpt>
      <trkpt lat="50.737087" lon="2.286128">
       <ele>9.5</ele>
       <time>2014-11-08T21:59:31Z</time>
      </trkpt>
      <trkpt lat="50.737197" lon="2.285819">
       <ele>9.62</ele>
       <time>2014-11-08T21:59:38Z</time>
      </trkpt>
      <trkpt lat="50.737724" lon="2.284456">
       <ele>8.25</ele>
       <time>2014-11-08T22:00:12Z</time>
      </trkpt>
      <trkpt lat="50.736583" lon="2.283113">
       <ele>6.41</ele>
       <time>2014-11-08T22:01:00Z</time>
      </trkpt>
      <trkpt lat="50.736648" lon="2.281075">
       <ele>5.32</ele>
       <time>2014-11-08T22:01:43Z</time>
      </trkpt>
      <trkpt lat="50.736667" lon="2.281016">
       <ele>5.22</ele>
       <time>2014-11-08T22:01:44Z</time>
      </trkpt>
      <trkpt lat="50.736747" lon="2.280914">
       <ele>5.1</ele>
       <time>2014-11-08T22:01:47Z</time>
      </trkpt>
      <trkpt lat="50.736888" lon="2.280565">
       <ele>4.68</ele>
       <time>2014-11-08T22:01:56Z</time>
      </trkpt>
      <trkpt lat="50.738182" lon="2.281770">
       <ele>6.84</ele>
       <time>2014-11-08T22:02:46Z</time>
      </trkpt>
      <trkpt lat="50.738273" lon="2.281794">
       <ele>6.94</ele>
       <time>2014-11-08T22:02:49Z</time>
      </trkpt>
      <trkpt lat="50.738445" lon="2.281723">
       <ele>7</ele>
       <time>2014-11-08T22:02:55Z</time>
      </trkpt>
      <trkpt lat="50.738559" lon="2.281610">
       <ele>6.87</ele>
       <time>2014-11-08T22:03:00Z</time>
      </trkpt>
      <trkpt lat="50.738643" lon="2.281384">
       <ele>6.49</ele>
       <time>2014-11-08T22:03:05Z</time>
      </trkpt>
      <trkpt lat="50.739345" lon="2.278768">
       <ele>7.26</ele>
       <time>2014-11-08T22:04:05Z</time>
      </trkpt>
      <trkpt lat="50.739669" lon="2.277657">
       <ele>8.21</ele>
       <time>2014-11-08T22:04:31Z</time>
      </trkpt>
      <trkpt lat="50.739746" lon="2.277529">
       <ele>8.27</ele>
       <time>2014-11-08T22:04:35Z</time>
      </trkpt>
      <trkpt lat="50.740093" lon="2.276144">
       <ele>6.04</ele>
       <time>2014-11-08T22:05:06Z</time>
      </trkpt>
      <trkpt lat="50.740329" lon="2.275146">
       <ele>5.64</ele>
       <time>2014-11-08T22:05:29Z</time>
      </trkpt>
      <trkpt lat="50.740768" lon="2.272074">
       <ele>7.08</ele>
       <time>2014-11-08T22:06:35Z</time>
      </trkpt>
      <trkpt lat="50.740821" lon="2.272166">
       <ele>7.01</ele>
       <time>2014-11-08T22:06:38Z</time>
      </trkpt>
      <trkpt lat="50.740882" lon="2.272207">
       <ele>6.92</ele>
       <time>2014-11-08T22:06:40Z</time>
      </trkpt>
      <trkpt lat="50.740936" lon="2.272187">
       <ele>6.85</ele>
       <time>2014-11-08T22:06:42Z</time>
      </trkpt>
      <trkpt lat="50.741035" lon="2.272130">
       <ele>6.73</ele>
       <time>2014-11-08T22:06:46Z</time>
      </trkpt>
      <trkpt lat="50.741088" lon="2.272027">
       <ele>6.73</ele>
       <time>2014-11-08T22:06:48Z</time>
      </trkpt>
      <trkpt lat="50.741111" lon="2.271908">
       <ele>6.81</ele>
       <time>2014-11-08T22:06:51Z</time>
      </trkpt>
      <trkpt lat="50.741073" lon="2.271749">
       <ele>6.94</ele>
       <time>2014-11-08T22:06:55Z</time>
      </trkpt>
      <trkpt lat="50.741001" lon="2.271657">
       <ele>7.01</ele>
       <time>2014-11-08T22:06:58Z</time>
      </trkpt>
      <trkpt lat="50.741012" lon="2.270190">
       <ele>8.28</ele>
       <time>2014-11-08T22:07:29Z</time>
      </trkpt>
      <trkpt lat="50.741149" lon="2.261635">
       <ele>9.28</ele>
       <time>2014-11-08T22:10:29Z</time>
      </trkpt>
      <trkpt lat="50.741146" lon="2.260895">
       <ele>10.18</ele>
       <time>2014-11-08T22:10:45Z</time>
      </trkpt>
      <trkpt lat="50.740993" lon="2.259794">
       <ele>11.61</ele>
       <time>2014-11-08T22:11:09Z</time>
      </trkpt>
      <trkpt lat="50.740898" lon="2.259263">
       <ele>11.11</ele>
       <time>2014-11-08T22:11:20Z</time>
      </trkpt>
      <trkpt lat="50.741081" lon="2.259118">
       <ele>11.02</ele>
       <time>2014-11-08T22:11:27Z</time>
      </trkpt>
      <trkpt lat="50.741214" lon="2.258867">
       <ele>11.03</ele>
       <time>2014-11-08T22:11:34Z</time>
      </trkpt>
      <trkpt lat="50.741283" lon="2.258482">
       <ele>10.93</ele>
       <time>2014-11-08T22:11:43Z</time>
      </trkpt>
      <trkpt lat="50.741260" lon="2.258192">
       <ele>11.31</ele>
       <time>2014-11-08T22:11:49Z</time>
      </trkpt>
      <trkpt lat="50.741214" lon="2.258034">
       <ele>11.83</ele>
       <time>2014-11-08T22:11:52Z</time>
      </trkpt>
      <trkpt lat="50.741825" lon="2.257241">
       <ele>10.68</ele>
       <time>2014-11-08T22:12:19Z</time>
      </trkpt>
      <trkpt lat="50.744174" lon="2.254586">
       <ele>8</ele>
       <time>2014-11-08T22:13:55Z</time>
      </trkpt>
      <trkpt lat="50.742462" lon="2.251781">
       <ele>9.74</ele>
       <time>2014-11-08T22:15:18Z</time>
      </trkpt>
      <trkpt lat="50.742671" lon="2.251688">
       <ele>9.94</ele>
       <time>2014-11-08T22:15:25Z</time>
      </trkpt>
      <trkpt lat="50.742881" lon="2.251683">
       <ele>9.95</ele>
       <time>2014-11-08T22:15:32Z</time>
      </trkpt>
      <trkpt lat="50.743152" lon="2.251636">
       <ele>10.03</ele>
       <time>2014-11-08T22:15:41Z</time>
      </trkpt>
      <trkpt lat="50.743385" lon="2.251513">
       <ele>10.25</ele>
       <time>2014-11-08T22:15:49Z</time>
      </trkpt>
      <trkpt lat="50.743625" lon="2.251296">
       <ele>10.8</ele>
       <time>2014-11-08T22:15:58Z</time>
      </trkpt>
      <trkpt lat="50.743755" lon="2.251219">
       <ele>11.04</ele>
       <time>2014-11-08T22:16:03Z</time>
      </trkpt>
      <trkpt lat="50.743877" lon="2.251096">
       <ele>11.34</ele>
       <time>2014-11-08T22:16:08Z</time>
      </trkpt>
      <trkpt lat="50.743976" lon="2.250916">
       <ele>11.67</ele>
       <time>2014-11-08T22:16:13Z</time>
      </trkpt>
      <trkpt lat="50.744194" lon="2.250324">
       <ele>12.67</ele>
       <time>2014-11-08T22:16:27Z</time>
      </trkpt>
      <trkpt lat="50.744182" lon="2.249249">
       <ele>15.78</ele>
       <time>2014-11-08T22:16:50Z</time>
      </trkpt>
      <trkpt lat="50.744262" lon="2.248152">
       <ele>16.87</ele>
       <time>2014-11-08T22:17:13Z</time>
      </trkpt>
      <trkpt lat="50.744194" lon="2.247473">
       <ele>15.97</ele>
       <time>2014-11-08T22:17:28Z</time>
      </trkpt>
      <trkpt lat="50.744319" lon="2.247363">
       <ele>15.81</ele>
       <time>2014-11-08T22:17:33Z</time>
      </trkpt>
      <trkpt lat="50.745254" lon="2.246278">
       <ele>13.98</ele>
       <time>2014-11-08T22:18:11Z</time>
      </trkpt>
      <trkpt lat="50.745975" lon="2.245651">
       <ele>15.6</ele>
       <time>2014-11-08T22:18:39Z</time>
      </trkpt>
      <trkpt lat="50.747001" lon="2.244807">
       <ele>21.06</ele>
       <time>2014-11-08T22:19:17Z</time>
      </trkpt>
      <trkpt lat="50.747417" lon="2.244573">
       <ele>23.09</ele>
       <time>2014-11-08T22:19:32Z</time>
      </trkpt>
      <trkpt lat="50.747669" lon="2.244462">
       <ele>23.63</ele>
       <time>2014-11-08T22:19:41Z</time>
      </trkpt>
      <trkpt lat="50.749496" lon="2.243803">
       <ele>21.31</ele>
       <time>2014-11-08T22:20:43Z</time>
      </trkpt>
      <trkpt lat="50.750099" lon="2.243546">
       <ele>16.49</ele>
       <time>2014-11-08T22:21:04Z</time>
      </trkpt>
      <trkpt lat="50.750179" lon="2.243479">
       <ele>16.1</ele>
       <time>2014-11-08T22:21:07Z</time>
      </trkpt>
      <trkpt lat="50.751003" lon="2.241794">
       <ele>12.04</ele>
       <time>2014-11-08T22:21:52Z</time>
      </trkpt>
      <trkpt lat="50.751560" lon="2.240783">
       <ele>11.38</ele>
       <time>2014-11-08T22:22:20Z</time>
      </trkpt>
      <trkpt lat="50.752277" lon="2.239562">
       <ele>10.45</ele>
       <time>2014-11-08T22:22:56Z</time>
      </trkpt>
      <trkpt lat="50.752391" lon="2.239315">
       <ele>10.23</ele>
       <time>2014-11-08T22:23:02Z</time>
      </trkpt>
      <trkpt lat="50.752628" lon="2.238892">
       <ele>10.68</ele>
       <time>2014-11-08T22:23:14Z</time>
      </trkpt>
      <trkpt lat="50.752929" lon="2.238456">
       <ele>11.53</ele>
       <time>2014-11-08T22:23:28Z</time>
      </trkpt>
      <trkpt lat="50.753536" lon="2.237854">
       <ele>11.19</ele>
       <time>2014-11-08T22:23:52Z</time>
      </trkpt>
      <trkpt lat="50.754020" lon="2.237117">
       <ele>10.81</ele>
       <time>2014-11-08T22:24:14Z</time>
      </trkpt>
      <trkpt lat="50.754135" lon="2.237121">
       <ele>10.53</ele>
       <time>2014-11-08T22:24:18Z</time>
      </trkpt>
      <trkpt lat="50.754215" lon="2.237250">
       <ele>10.13</ele>
       <time>2014-11-08T22:24:22Z</time>
      </trkpt>
      <trkpt lat="50.754264" lon="2.237277">
       <ele>9.91</ele>
       <time>2014-11-08T22:24:23Z</time>
      </trkpt>
      <trkpt lat="50.754318" lon="2.237276">
       <ele>9.72</ele>
       <time>2014-11-08T22:24:25Z</time>
      </trkpt>
      <trkpt lat="50.754367" lon="2.237246">
       <ele>9.58</ele>
       <time>2014-11-08T22:24:27Z</time>
      </trkpt>
      <trkpt lat="50.754409" lon="2.237190">
       <ele>9.5</ele>
       <time>2014-11-08T22:24:29Z</time>
      </trkpt>
      <trkpt lat="50.754436" lon="2.237118">
       <ele>9.49</ele>
       <time>2014-11-08T22:24:30Z</time>
      </trkpt>
      <trkpt lat="50.754436" lon="2.236963">
       <ele>9.67</ele>
       <time>2014-11-08T22:24:34Z</time>
      </trkpt>
      <trkpt lat="50.754413" lon="2.236886">
       <ele>9.85</ele>
       <time>2014-11-08T22:24:36Z</time>
      </trkpt>
      <trkpt lat="50.754375" lon="2.236829">
       <ele>10.05</ele>
       <time>2014-11-08T22:24:37Z</time>
      </trkpt>
      <trkpt lat="50.754409" lon="2.236674">
       <ele>10.12</ele>
       <time>2014-11-08T22:24:41Z</time>
      </trkpt>
      <trkpt lat="50.754512" lon="2.236382">
       <ele>10.24</ele>
       <time>2014-11-08T22:24:48Z</time>
      </trkpt>
      <trkpt lat="50.754615" lon="2.236159">
       <ele>10.32</ele>
       <time>2014-11-08T22:24:54Z</time>
      </trkpt>
      <trkpt lat="50.754791" lon="2.235876">
       <ele>10.41</ele>
       <time>2014-11-08T22:25:02Z</time>
      </trkpt>
      <trkpt lat="50.755264" lon="2.235214">
       <ele>10.9</ele>
       <time>2014-11-08T22:25:23Z</time>
      </trkpt>
      <trkpt lat="50.755435" lon="2.235003">
       <ele>11.52</ele>
       <time>2014-11-08T22:25:30Z</time>
      </trkpt>
      <trkpt lat="50.754894" lon="2.233587">
       <ele>12.18</ele>
       <time>2014-11-08T22:26:05Z</time>
      </trkpt>
      <trkpt lat="50.755538" lon="2.231446">
       <ele>13.63</ele>
       <time>2014-11-08T22:26:55Z</time>
      </trkpt>
      <trkpt lat="50.755916" lon="2.229964">
       <ele>11.79</ele>
       <time>2014-11-08T22:27:29Z</time>
      </trkpt>
      <trkpt lat="50.756187" lon="2.228784">
       <ele>13.18</ele>
       <time>2014-11-08T22:27:56Z</time>
      </trkpt>
      <trkpt lat="50.756679" lon="2.227473">
       <ele>13.98</ele>
       <time>2014-11-08T22:28:28Z</time>
      </trkpt>
      <trkpt lat="50.756725" lon="2.227206">
       <ele>13.9</ele>
       <time>2014-11-08T22:28:34Z</time>
      </trkpt>
      <trkpt lat="50.756233" lon="2.226186">
       <ele>15.62</ele>
       <time>2014-11-08T22:29:01Z</time>
      </trkpt>
      <trkpt lat="50.757961" lon="2.224482">
       <ele>15.52</ele>
       <time>2014-11-08T22:30:09Z</time>
      </trkpt>
      <trkpt lat="50.759891" lon="2.222486">
       <ele>13.52</ele>
       <time>2014-11-08T22:31:26Z</time>
      </trkpt>
      <trkpt lat="50.760059" lon="2.222284">
       <ele>12.98</ele>
       <time>2014-11-08T22:31:33Z</time>
      </trkpt>
      <trkpt lat="50.759140" lon="2.220673">
       <ele>15.25</ele>
       <time>2014-11-08T22:32:18Z</time>
      </trkpt>
      <trkpt lat="50.758892" lon="2.220314">
       <ele>16.08</ele>
       <time>2014-11-08T22:32:30Z</time>
      </trkpt>
      <trkpt lat="50.758136" lon="2.219074">
       <ele>17.26</ele>
       <time>2014-11-08T22:33:06Z</time>
      </trkpt>
      <trkpt lat="50.757854" lon="2.218677">
       <ele>17.91</ele>
       <time>2014-11-08T22:33:19Z</time>
      </trkpt>
      <trkpt lat="50.757411" lon="2.217952">
       <ele>19.46</ele>
       <time>2014-11-08T22:33:40Z</time>
      </trkpt>
      <trkpt lat="50.756923" lon="2.216715">
       <ele>21.23</ele>
       <time>2014-11-08T22:34:11Z</time>
      </trkpt>
      <trkpt lat="50.755661" lon="2.214606">
       <ele>24.32</ele>
       <time>2014-11-08T22:35:12Z</time>
      </trkpt>
      <trkpt lat="50.755519" lon="2.214591">
       <ele>24.29</ele>
       <time>2014-11-08T22:35:17Z</time>
      </trkpt>
      <trkpt lat="50.755081" lon="2.214740">
       <ele>23.65</ele>
       <time>2014-11-08T22:35:32Z</time>
      </trkpt>
      <trkpt lat="50.754417" lon="2.214004">
       <ele>26.85</ele>
       <time>2014-11-08T22:35:59Z</time>
      </trkpt>
      <trkpt lat="50.754314" lon="2.213655">
       <ele>27.98</ele>
       <time>2014-11-08T22:36:07Z</time>
      </trkpt>
      <trkpt lat="50.754295" lon="2.213318">
       <ele>28.87</ele>
       <time>2014-11-08T22:36:14Z</time>
      </trkpt>
      <trkpt lat="50.754440" lon="2.212492">
       <ele>30.68</ele>
       <time>2014-11-08T22:36:32Z</time>
      </trkpt>
      <trkpt lat="50.754405" lon="2.212078">
       <ele>31.95</ele>
       <time>2014-11-08T22:36:41Z</time>
      </trkpt>
      <trkpt lat="50.754226" lon="2.212028">
       <ele>31.8</ele>
       <time>2014-11-08T22:36:47Z</time>
      </trkpt>
      <trkpt lat="50.754108" lon="2.211539">
       <ele>33.34</ele>
       <time>2014-11-08T22:36:58Z</time>
      </trkpt>
      <trkpt lat="50.754066" lon="2.211010">
       <ele>35.31</ele>
       <time>2014-11-08T22:37:09Z</time>
      </trkpt>
      <trkpt lat="50.754470" lon="2.208583">
       <ele>41.13</ele>
       <time>2014-11-08T22:38:02Z</time>
      </trkpt>
      <trkpt lat="50.755088" lon="2.205626">
       <ele>41.6</ele>
       <time>2014-11-08T22:39:08Z</time>
      </trkpt>
      <trkpt lat="50.755294" lon="2.204756">
       <ele>39.58</ele>
       <time>2014-11-08T22:39:28Z</time>
      </trkpt>
      <trkpt lat="50.755481" lon="2.203756">
       <ele>37.97</ele>
       <time>2014-11-08T22:39:50Z</time>
      </trkpt>
      <trkpt lat="50.755622" lon="2.202537">
       <ele>40.4</ele>
       <time>2014-11-08T22:40:16Z</time>
      </trkpt>
      <trkpt lat="50.755744" lon="2.198256">
       <ele>52.09</ele>
       <time>2014-11-08T22:41:46Z</time>
      </trkpt>
      <trkpt lat="50.755916" lon="2.194585">
       <ele>58.05</ele>
       <time>2014-11-08T22:43:04Z</time>
      </trkpt>
      <trkpt lat="50.755931" lon="2.192718">
       <ele>59.86</ele>
       <time>2014-11-08T22:43:43Z</time>
      </trkpt>
      <trkpt lat="50.755825" lon="2.189553">
       <ele>65.06</ele>
       <time>2014-11-08T22:44:50Z</time>
      </trkpt>
      <trkpt lat="50.756111" lon="2.187865">
       <ele>67.08</ele>
       <time>2014-11-08T22:45:27Z</time>
      </trkpt>
      <trkpt lat="50.756156" lon="2.187036">
       <ele>67.61</ele>
       <time>2014-11-08T22:45:45Z</time>
      </trkpt>
      <trkpt lat="50.756114" lon="2.185142">
       <ele>68.55</ele>
       <time>2014-11-08T22:46:25Z</time>
      </trkpt>
      <trkpt lat="50.756080" lon="2.183478">
       <ele>70.99</ele>
       <time>2014-11-08T22:47:00Z</time>
      </trkpt>
      <trkpt lat="50.755939" lon="2.182801">
       <ele>72.26</ele>
       <time>2014-11-08T22:47:15Z</time>
      </trkpt>
      <trkpt lat="50.755756" lon="2.182171">
       <ele>73.45</ele>
       <time>2014-11-08T22:47:29Z</time>
      </trkpt>
      <trkpt lat="50.755416" lon="2.181101">
       <ele>73.66</ele>
       <time>2014-11-08T22:47:55Z</time>
      </trkpt>
      <trkpt lat="50.753791" lon="2.176347">
       <ele>79.22</ele>
       <time>2014-11-08T22:49:49Z</time>
      </trkpt>
      <trkpt lat="50.753353" lon="2.174978">
       <ele>79.98</ele>
       <time>2014-11-08T22:50:21Z</time>
      </trkpt>
      <trkpt lat="50.753005" lon="2.173573">
       <ele>81.93</ele>
       <time>2014-11-08T22:50:53Z</time>
      </trkpt>
      <trkpt lat="50.752239" lon="2.170001">
       <ele>84.94</ele>
       <time>2014-11-08T22:52:13Z</time>
      </trkpt>
      <trkpt lat="50.751426" lon="2.167680">
       <ele>89.36</ele>
       <time>2014-11-08T22:53:09Z</time>
      </trkpt>
      <trkpt lat="50.751174" lon="2.166640">
       <ele>90.78</ele>
       <time>2014-11-08T22:53:32Z</time>
      </trkpt>
      <trkpt lat="50.751071" lon="2.165110">
       <ele>92.05</ele>
       <time>2014-11-08T22:54:05Z</time>
      </trkpt>
      <trkpt lat="50.751167" lon="2.162786">
       <ele>88.82</ele>
       <time>2014-11-08T22:54:54Z</time>
      </trkpt>
      <trkpt lat="50.751136" lon="2.162471">
       <ele>88.07</ele>
       <time>2014-11-08T22:55:01Z</time>
      </trkpt>
      <trkpt lat="50.750640" lon="2.157094">
       <ele>67.59</ele>
       <time>2014-11-08T22:56:55Z</time>
      </trkpt>
      <trkpt lat="50.751380" lon="2.153228">
       <ele>67.31</ele>
       <time>2014-11-08T22:58:21Z</time>
      </trkpt>
      <trkpt lat="50.751583" lon="2.152282">
       <ele>70.66</ele>
       <time>2014-11-08T22:58:42Z</time>
      </trkpt>
      <trkpt lat="50.751617" lon="2.151916">
       <ele>72</ele>
       <time>2014-11-08T22:58:49Z</time>
      </trkpt>
      <trkpt lat="50.751560" lon="2.150542">
       <ele>75.23</ele>
       <time>2014-11-08T22:59:19Z</time>
      </trkpt>
      <trkpt lat="50.751361" lon="2.149657">
       <ele>77.29</ele>
       <time>2014-11-08T22:59:38Z</time>
      </trkpt>
      <trkpt lat="50.751094" lon="2.148610">
       <ele>78.59</ele>
       <time>2014-11-08T23:00:02Z</time>
      </trkpt>
      <trkpt lat="50.750858" lon="2.147927">
       <ele>77.62</ele>
       <time>2014-11-08T23:00:19Z</time>
      </trkpt>
      <trkpt lat="50.750656" lon="2.147109">
       <ele>77.84</ele>
       <time>2014-11-08T23:00:37Z</time>
      </trkpt>
      <trkpt lat="50.750530" lon="2.146485">
       <ele>77.76</ele>
       <time>2014-11-08T23:00:51Z</time>
      </trkpt>
      <trkpt lat="50.750411" lon="2.145683">
       <ele>78.16</ele>
       <time>2014-11-08T23:01:08Z</time>
      </trkpt>
      <trkpt lat="50.750263" lon="2.144207">
       <ele>79.22</ele>
       <time>2014-11-08T23:01:40Z</time>
      </trkpt>
      <trkpt lat="50.750202" lon="2.143847">
       <ele>80.12</ele>
       <time>2014-11-08T23:01:48Z</time>
      </trkpt>
      <trkpt lat="50.750099" lon="2.143433">
       <ele>81.12</ele>
       <time>2014-11-08T23:01:57Z</time>
      </trkpt>
      <trkpt lat="50.749797" lon="2.142441">
       <ele>84</ele>
       <time>2014-11-08T23:02:20Z</time>
      </trkpt>
      <trkpt lat="50.749317" lon="2.140383">
       <ele>88.72</ele>
       <time>2014-11-08T23:03:07Z</time>
      </trkpt>
      <trkpt lat="50.749256" lon="2.140037">
       <ele>89.61</ele>
       <time>2014-11-08T23:03:14Z</time>
      </trkpt>
      <trkpt lat="50.749229" lon="2.139537">
       <ele>91.24</ele>
       <time>2014-11-08T23:03:25Z</time>
      </trkpt>
      <trkpt lat="50.749256" lon="2.138978">
       <ele>93.49</ele>
       <time>2014-11-08T23:03:37Z</time>
      </trkpt>
      <trkpt lat="50.749382" lon="2.137619">
       <ele>98.49</ele>
       <time>2014-11-08T23:04:06Z</time>
      </trkpt>
      <trkpt lat="50.749507" lon="2.134397">
       <ele>107.87</ele>
       <time>2014-11-08T23:05:14Z</time>
      </trkpt>
      <trkpt lat="50.749595" lon="2.133619">
       <ele>110.44</ele>
       <time>2014-11-08T23:05:31Z</time>
      </trkpt>
      <trkpt lat="50.749652" lon="2.133399">
       <ele>111.52</ele>
       <time>2014-11-08T23:05:36Z</time>
      </trkpt>
      <trkpt lat="50.749755" lon="2.133177">
       <ele>113.09</ele>
       <time>2014-11-08T23:05:41Z</time>
      </trkpt>
      <trkpt lat="50.749996" lon="2.132915">
       <ele>115.97</ele>
       <time>2014-11-08T23:05:51Z</time>
      </trkpt>
      <trkpt lat="50.750102" lon="2.132725">
       <ele>116.77</ele>
       <time>2014-11-08T23:05:57Z</time>
      </trkpt>
      <trkpt lat="50.750125" lon="2.132507">
       <ele>117.29</ele>
       <time>2014-11-08T23:06:01Z</time>
      </trkpt>
      <trkpt lat="50.750087" lon="2.131921">
       <ele>118.38</ele>
       <time>2014-11-08T23:06:14Z</time>
      </trkpt>
      <trkpt lat="50.750076" lon="2.131376">
       <ele>119.23</ele>
       <time>2014-11-08T23:06:25Z</time>
      </trkpt>
      <trkpt lat="50.749965" lon="2.130448">
       <ele>119.83</ele>
       <time>2014-11-08T23:06:45Z</time>
      </trkpt>
      <trkpt lat="50.749961" lon="2.130095">
       <ele>119.85</ele>
       <time>2014-11-08T23:06:53Z</time>
      </trkpt>
      <trkpt lat="50.749988" lon="2.129728">
       <ele>120.29</ele>
       <time>2014-11-08T23:07:00Z</time>
      </trkpt>
      <trkpt lat="50.750152" lon="2.128297">
       <ele>121.63</ele>
       <time>2014-11-08T23:07:31Z</time>
      </trkpt>
      <trkpt lat="50.750213" lon="2.127587">
       <ele>121.49</ele>
       <time>2014-11-08T23:07:46Z</time>
      </trkpt>
      <trkpt lat="50.750263" lon="2.126172">
       <ele>121.86</ele>
       <time>2014-11-08T23:08:16Z</time>
      </trkpt>
      <trkpt lat="50.750293" lon="2.124572">
       <ele>122.2</ele>
       <time>2014-11-08T23:08:50Z</time>
      </trkpt>
      <trkpt lat="50.750339" lon="2.123984">
       <ele>121.47</ele>
       <time>2014-11-08T23:09:02Z</time>
      </trkpt>
      <trkpt lat="50.750423" lon="2.123291">
       <ele>120.44</ele>
       <time>2014-11-08T23:09:17Z</time>
      </trkpt>
      <trkpt lat="50.750598" lon="2.122102">
       <ele>118.01</ele>
       <time>2014-11-08T23:09:43Z</time>
      </trkpt>
      <trkpt lat="50.750617" lon="2.121792">
       <ele>117.11</ele>
       <time>2014-11-08T23:09:50Z</time>
      </trkpt>
      <trkpt lat="50.750656" lon="2.121120">
       <ele>116.07</ele>
       <time>2014-11-08T23:10:04Z</time>
      </trkpt>
      <trkpt lat="50.750728" lon="2.117335">
       <ele>124.3</ele>
       <time>2014-11-08T23:11:24Z</time>
      </trkpt>
      <trkpt lat="50.750720" lon="2.116976">
       <ele>125.21</ele>
       <time>2014-11-08T23:11:31Z</time>
      </trkpt>
      <trkpt lat="50.750522" lon="2.114959">
       <ele>131.02</ele>
       <time>2014-11-08T23:12:15Z</time>
      </trkpt>
      <trkpt lat="50.750503" lon="2.114618">
       <ele>131.18</ele>
       <time>2014-11-08T23:12:22Z</time>
      </trkpt>
      <trkpt lat="50.750621" lon="2.113626">
       <ele>131.9</ele>
       <time>2014-11-08T23:12:43Z</time>
      </trkpt>
      <trkpt lat="50.750629" lon="2.112875">
       <ele>132.79</ele>
       <time>2014-11-08T23:12:59Z</time>
      </trkpt>
      <trkpt lat="50.750606" lon="2.112293">
       <ele>133.27</ele>
       <time>2014-11-08T23:13:11Z</time>
      </trkpt>
      <trkpt lat="50.750606" lon="2.111572">
       <ele>133.39</ele>
       <time>2014-11-08T23:13:26Z</time>
      </trkpt>
      <trkpt lat="50.750682" lon="2.107640">
       <ele>137.65</ele>
       <time>2014-11-08T23:14:49Z</time>
      </trkpt>
      <trkpt lat="50.750686" lon="2.102950">
       <ele>142.2</ele>
       <time>2014-11-08T23:16:28Z</time>
      </trkpt>
      <trkpt lat="50.750675" lon="2.102246">
       <ele>142.68</ele>
       <time>2014-11-08T23:16:43Z</time>
      </trkpt>
      <trkpt lat="50.750534" lon="2.101418">
       <ele>143.05</ele>
       <time>2014-11-08T23:17:01Z</time>
      </trkpt>
      <trkpt lat="50.750007" lon="2.098603">
       <ele>147</ele>
       <time>2014-11-08T23:18:03Z</time>
      </trkpt>
      <trkpt lat="50.749908" lon="2.098201">
       <ele>147.27</ele>
       <time>2014-11-08T23:18:13Z</time>
      </trkpt>
      <trkpt lat="50.749732" lon="2.097671">
       <ele>148.12</ele>
       <time>2014-11-08T23:18:25Z</time>
      </trkpt>
      <trkpt lat="50.749675" lon="2.097336">
       <ele>148.59</ele>
       <time>2014-11-08T23:18:33Z</time>
      </trkpt>
      <trkpt lat="50.749607" lon="2.096631">
       <ele>149.45</ele>
       <time>2014-11-08T23:18:48Z</time>
      </trkpt>
      <trkpt lat="50.749515" lon="2.095977">
       <ele>149.1</ele>
       <time>2014-11-08T23:19:02Z</time>
      </trkpt>
      <trkpt lat="50.749351" lon="2.095029">
       <ele>150.72</ele>
       <time>2014-11-08T23:19:22Z</time>
      </trkpt>
      <trkpt lat="50.749053" lon="2.093641">
       <ele>153.67</ele>
       <time>2014-11-08T23:19:53Z</time>
      </trkpt>
      <trkpt lat="50.748973" lon="2.093173">
       <ele>154.28</ele>
       <time>2014-11-08T23:20:04Z</time>
      </trkpt>
      <trkpt lat="50.749031" lon="2.092271">
       <ele>154.1</ele>
       <time>2014-11-08T23:20:23Z</time>
      </trkpt>
      <trkpt lat="50.749069" lon="2.090989">
       <ele>152.54</ele>
       <time>2014-11-08T23:20:50Z</time>
      </trkpt>
      <trkpt lat="50.749038" lon="2.090521">
       <ele>152.84</ele>
       <time>2014-11-08T23:21:00Z</time>
      </trkpt>
      <trkpt lat="50.749103" lon="2.090126">
       <ele>153.08</ele>
       <time>2014-11-08T23:21:08Z</time>
      </trkpt>
      <trkpt lat="50.749366" lon="2.089306">
       <ele>152.28</ele>
       <time>2014-11-08T23:21:28Z</time>
      </trkpt>
      <trkpt lat="50.749496" lon="2.088840">
       <ele>151.81</ele>
       <time>2014-11-08T23:21:39Z</time>
      </trkpt>
      <trkpt lat="50.749645" lon="2.088109">
       <ele>151.12</ele>
       <time>2014-11-08T23:21:55Z</time>
      </trkpt>
      <trkpt lat="50.749881" lon="2.086796">
       <ele>148</ele>
       <time>2014-11-08T23:22:24Z</time>
      </trkpt>
      <trkpt lat="50.749965" lon="2.086136">
       <ele>145.35</ele>
       <time>2014-11-08T23:22:38Z</time>
      </trkpt>
      <trkpt lat="50.750007" lon="2.084815">
       <ele>145.46</ele>
       <time>2014-11-08T23:23:06Z</time>
      </trkpt>
      <trkpt lat="50.750015" lon="2.083583">
       <ele>148.46</ele>
       <time>2014-11-08T23:23:32Z</time>
      </trkpt>
      <trkpt lat="50.749992" lon="2.082854">
       <ele>150.72</ele>
       <time>2014-11-08T23:23:47Z</time>
      </trkpt>
      <trkpt lat="50.750148" lon="2.079400">
       <ele>160.54</ele>
       <time>2014-11-08T23:25:00Z</time>
      </trkpt>
      <trkpt lat="50.750305" lon="2.078191">
       <ele>161.74</ele>
       <time>2014-11-08T23:25:26Z</time>
      </trkpt>
      <trkpt lat="50.750289" lon="2.076988">
       <ele>162.09</ele>
       <time>2014-11-08T23:25:52Z</time>
      </trkpt>
      <trkpt lat="50.750167" lon="2.071759">
       <ele>164.31</ele>
       <time>2014-11-08T23:27:42Z</time>
      </trkpt>
      <trkpt lat="50.750072" lon="2.070868">
       <ele>164.91</ele>
       <time>2014-11-08T23:28:01Z</time>
      </trkpt>
      <trkpt lat="50.749790" lon="2.068701">
       <ele>166.67</ele>
       <time>2014-11-08T23:28:48Z</time>
      </trkpt>
      <trkpt lat="50.749717" lon="2.067867">
       <ele>167</ele>
       <time>2014-11-08T23:29:06Z</time>
      </trkpt>
      <trkpt lat="50.749526" lon="2.065164">
       <ele>169.05</ele>
       <time>2014-11-08T23:30:03Z</time>
      </trkpt>
      <trkpt lat="50.749488" lon="2.064193">
       <ele>170.2</ele>
       <time>2014-11-08T23:30:24Z</time>
      </trkpt>
      <trkpt lat="50.749500" lon="2.063395">
       <ele>170.57</ele>
       <time>2014-11-08T23:30:41Z</time>
      </trkpt>
      <trkpt lat="50.749542" lon="2.062973">
       <ele>170.55</ele>
       <time>2014-11-08T23:30:50Z</time>
      </trkpt>
      <trkpt lat="50.749752" lon="2.061602">
       <ele>170.63</ele>
       <time>2014-11-08T23:31:19Z</time>
      </trkpt>
      <trkpt lat="50.749816" lon="2.060857">
       <ele>170.98</ele>
       <time>2014-11-08T23:31:35Z</time>
      </trkpt>
      <trkpt lat="50.749870" lon="2.058768">
       <ele>171.33</ele>
       <time>2014-11-08T23:32:19Z</time>
      </trkpt>
      <trkpt lat="50.749900" lon="2.058444">
       <ele>171.66</ele>
       <time>2014-11-08T23:32:26Z</time>
      </trkpt>
      <trkpt lat="50.749950" lon="2.058108">
       <ele>171.63</ele>
       <time>2014-11-08T23:32:34Z</time>
      </trkpt>
      <trkpt lat="50.750076" lon="2.057554">
       <ele>170.79</ele>
       <time>2014-11-08T23:32:46Z</time>
      </trkpt>
      <trkpt lat="50.750152" lon="2.057122">
       <ele>170.37</ele>
       <time>2014-11-08T23:32:55Z</time>
      </trkpt>
      <trkpt lat="50.750339" lon="2.055629">
       <ele>171.57</ele>
       <time>2014-11-08T23:33:28Z</time>
      </trkpt>
      <trkpt lat="50.750358" lon="2.055336">
       <ele>171.79</ele>
       <time>2014-11-08T23:33:34Z</time>
      </trkpt>
      <trkpt lat="50.750450" lon="2.054754">
       <ele>172.24</ele>
       <time>2014-11-08T23:33:47Z</time>
      </trkpt>
      <trkpt lat="50.750560" lon="2.053710">
       <ele>173</ele>
       <time>2014-11-08T23:34:09Z</time>
      </trkpt>
      <trkpt lat="50.750675" lon="2.053226">
       <ele>173</ele>
       <time>2014-11-08T23:34:20Z</time>
      </trkpt>
      <trkpt lat="50.750839" lon="2.052776">
       <ele>173.02</ele>
       <time>2014-11-08T23:34:31Z</time>
      </trkpt>
      <trkpt lat="50.751049" lon="2.052423">
       <ele>173.91</ele>
       <time>2014-11-08T23:34:41Z</time>
      </trkpt>
      <trkpt lat="50.751159" lon="2.052089">
       <ele>174.77</ele>
       <time>2014-11-08T23:34:49Z</time>
      </trkpt>
      <trkpt lat="50.751205" lon="2.051775">
       <ele>175.3</ele>
       <time>2014-11-08T23:34:56Z</time>
      </trkpt>
      <trkpt lat="50.751262" lon="2.050740">
       <ele>176.92</ele>
       <time>2014-11-08T23:35:18Z</time>
      </trkpt>
      <trkpt lat="50.751216" lon="2.050028">
       <ele>175.95</ele>
       <time>2014-11-08T23:35:33Z</time>
      </trkpt>
      <trkpt lat="50.751255" lon="2.049369">
       <ele>175.63</ele>
       <time>2014-11-08T23:35:47Z</time>
      </trkpt>
      <trkpt lat="50.751377" lon="2.048810">
       <ele>175.5</ele>
       <time>2014-11-08T23:35:59Z</time>
      </trkpt>
      <trkpt lat="50.751544" lon="2.048377">
       <ele>175.72</ele>
       <time>2014-11-08T23:36:10Z</time>
      </trkpt>
      <trkpt lat="50.751789" lon="2.047935">
       <ele>176.44</ele>
       <time>2014-11-08T23:36:22Z</time>
      </trkpt>
      <trkpt lat="50.752212" lon="2.047245">
       <ele>177.76</ele>
       <time>2014-11-08T23:36:43Z</time>
      </trkpt>
      <trkpt lat="50.752441" lon="2.046931">
       <ele>178.15</ele>
       <time>2014-11-08T23:36:53Z</time>
      </trkpt>
      <trkpt lat="50.752498" lon="2.046775">
       <ele>178.13</ele>
       <time>2014-11-08T23:36:57Z</time>
      </trkpt>
      <trkpt lat="50.752727" lon="2.045746">
       <ele>178.38</ele>
       <time>2014-11-08T23:37:20Z</time>
      </trkpt>
      <trkpt lat="50.752914" lon="2.044672">
       <ele>179.5</ele>
       <time>2014-11-08T23:37:43Z</time>
      </trkpt>
      <trkpt lat="50.752971" lon="2.043947">
       <ele>179.72</ele>
       <time>2014-11-08T23:37:58Z</time>
      </trkpt>
      <trkpt lat="50.752983" lon="2.043190">
       <ele>180.13</ele>
       <time>2014-11-08T23:38:14Z</time>
      </trkpt>
      <trkpt lat="50.752807" lon="2.037785">
       <ele>178.28</ele>
       <time>2014-11-08T23:40:09Z</time>
      </trkpt>
      <trkpt lat="50.752834" lon="2.036850">
       <ele>177.93</ele>
       <time>2014-11-08T23:40:28Z</time>
      </trkpt>
      <trkpt lat="50.753074" lon="2.034637">
       <ele>177.2</ele>
       <time>2014-11-08T23:41:16Z</time>
      </trkpt>
      <trkpt lat="50.753112" lon="2.033621">
       <ele>177.95</ele>
       <time>2014-11-08T23:41:37Z</time>
      </trkpt>
      <trkpt lat="50.753131" lon="2.030951">
       <ele>179.27</ele>
       <time>2014-11-08T23:42:34Z</time>
      </trkpt>
      <trkpt lat="50.753070" lon="2.028640">
       <ele>182.83</ele>
       <time>2014-11-08T23:43:23Z</time>
      </trkpt>
      <trkpt lat="50.753074" lon="2.026890">
       <ele>183.73</ele>
       <time>2014-11-08T23:44:00Z</time>
      </trkpt>
      <trkpt lat="50.753337" lon="2.025444">
       <ele>184.08</ele>
       <time>2014-11-08T23:44:31Z</time>
      </trkpt>
      <trkpt lat="50.753681" lon="2.023843">
       <ele>182.07</ele>
       <time>2014-11-08T23:45:07Z</time>
      </trkpt>
      <trkpt lat="50.753852" lon="2.023349">
       <ele>183.21</ele>
       <time>2014-11-08T23:45:19Z</time>
      </trkpt>
      <trkpt lat="50.754150" lon="2.022701">
       <ele>186.16</ele>
       <time>2014-11-08T23:45:36Z</time>
      </trkpt>
      <trkpt lat="50.754283" lon="2.022372">
       <ele>188.65</ele>
       <time>2014-11-08T23:45:44Z</time>
      </trkpt>
      <trkpt lat="50.754329" lon="2.022032">
       <ele>188.87</ele>
       <time>2014-11-08T23:45:51Z</time>
      </trkpt>
      <trkpt lat="50.754329" lon="2.020214">
       <ele>186.55</ele>
       <time>2014-11-08T23:46:30Z</time>
      </trkpt>
      <trkpt lat="50.754222" lon="2.018692">
       <ele>188.57</ele>
       <time>2014-11-08T23:47:02Z</time>
      </trkpt>
      <trkpt lat="50.754173" lon="2.017740">
       <ele>189.04</ele>
       <time>2014-11-08T23:47:22Z</time>
      </trkpt>
      <trkpt lat="50.753959" lon="2.016833">
       <ele>184.86</ele>
       <time>2014-11-08T23:47:43Z</time>
      </trkpt>
      <trkpt lat="50.753963" lon="2.016557">
       <ele>184.04</ele>
       <time>2014-11-08T23:47:48Z</time>
      </trkpt>
      <trkpt lat="50.754058" lon="2.016061">
       <ele>183.25</ele>
       <time>2014-11-08T23:47:59Z</time>
      </trkpt>
      <trkpt lat="50.754203" lon="2.015460">
       <ele>182.3</ele>
       <time>2014-11-08T23:48:13Z</time>
      </trkpt>
      <trkpt lat="50.754528" lon="2.014672">
       <ele>180.92</ele>
       <time>2014-11-08T23:48:33Z</time>
      </trkpt>
      <trkpt lat="50.754737" lon="2.014312">
       <ele>179.99</ele>
       <time>2014-11-08T23:48:43Z</time>
      </trkpt>
      <trkpt lat="50.754817" lon="2.014055">
       <ele>179.36</ele>
       <time>2014-11-08T23:48:49Z</time>
      </trkpt>
      <trkpt lat="50.754817" lon="2.013474">
       <ele>178.97</ele>
       <time>2014-11-08T23:49:01Z</time>
      </trkpt>
      <trkpt lat="50.754756" lon="2.013015">
       <ele>176.45</ele>
       <time>2014-11-08T23:49:11Z</time>
      </trkpt>
      <trkpt lat="50.754421" lon="2.012223">
       <ele>172.92</ele>
       <time>2014-11-08T23:49:32Z</time>
      </trkpt>
      <trkpt lat="50.754413" lon="2.012103">
       <ele>172.17</ele>
       <time>2014-11-08T23:49:34Z</time>
      </trkpt>
      <trkpt lat="50.754409" lon="2.011991">
       <ele>171.45</ele>
       <time>2014-11-08T23:49:36Z</time>
      </trkpt>
      <trkpt lat="50.754585" lon="2.011714">
       <ele>166.87</ele>
       <time>2014-11-08T23:49:45Z</time>
      </trkpt>
      <trkpt lat="50.754905" lon="2.011418">
       <ele>159.62</ele>
       <time>2014-11-08T23:49:57Z</time>
      </trkpt>
      <trkpt lat="50.755725" lon="2.010071">
       <ele>148.92</ele>
       <time>2014-11-08T23:50:37Z</time>
      </trkpt>
      <trkpt lat="50.755870" lon="2.009670">
       <ele>145.1</ele>
       <time>2014-11-08T23:50:46Z</time>
      </trkpt>
      <trkpt lat="50.756149" lon="2.009356">
       <ele>143.39</ele>
       <time>2014-11-08T23:50:58Z</time>
      </trkpt>
      <trkpt lat="50.756423" lon="2.008959">
       <ele>140.1</ele>
       <time>2014-11-08T23:51:10Z</time>
      </trkpt>
      <trkpt lat="50.756546" lon="2.008690">
       <ele>137.67</ele>
       <time>2014-11-08T23:51:17Z</time>
      </trkpt>
      <trkpt lat="50.756614" lon="2.008296">
       <ele>133.66</ele>
       <time>2014-11-08T23:51:26Z</time>
      </trkpt>
      <trkpt lat="50.756607" lon="2.008023">
       <ele>131.18</ele>
       <time>2014-11-08T23:51:32Z</time>
      </trkpt>
      <trkpt lat="50.756561" lon="2.007534">
       <ele>127.05</ele>
       <time>2014-11-08T23:51:42Z</time>
      </trkpt>
      <trkpt lat="50.756584" lon="2.007183">
       <ele>124.01</ele>
       <time>2014-11-08T23:51:49Z</time>
      </trkpt>
      <trkpt lat="50.756694" lon="2.006901">
       <ele>120.96</ele>
       <time>2014-11-08T23:51:56Z</time>
      </trkpt>
      <trkpt lat="50.757434" lon="2.005656">
       <ele>114.15</ele>
       <time>2014-11-08T23:52:32Z</time>
      </trkpt>
      <trkpt lat="50.757678" lon="2.005141">
       <ele>111.5</ele>
       <time>2014-11-08T23:52:46Z</time>
      </trkpt>
      <trkpt lat="50.758213" lon="2.003631">
       <ele>103.63</ele>
       <time>2014-11-08T23:53:23Z</time>
      </trkpt>
      <trkpt lat="50.758277" lon="2.003304">
       <ele>101.96</ele>
       <time>2014-11-08T23:53:30Z</time>
      </trkpt>
      <trkpt lat="50.758277" lon="2.002846">
       <ele>100.23</ele>
       <time>2014-11-08T23:53:39Z</time>
      </trkpt>
      <trkpt lat="50.758365" lon="2.002058">
       <ele>96.45</ele>
       <time>2014-11-08T23:53:56Z</time>
      </trkpt>
      <trkpt lat="50.758487" lon="2.001539">
       <ele>94.19</ele>
       <time>2014-11-08T23:54:08Z</time>
      </trkpt>
      <trkpt lat="50.758731" lon="2.000843">
       <ele>92.51</ele>
       <time>2014-11-08T23:54:25Z</time>
      </trkpt>
      <trkpt lat="50.760364" lon="1.997689">
       <ele>83.88</ele>
       <time>2014-11-08T23:55:51Z</time>
      </trkpt>
      <trkpt lat="50.760768" lon="1.997140">
       <ele>82.15</ele>
       <time>2014-11-08T23:56:09Z</time>
      </trkpt>
      <trkpt lat="50.761165" lon="1.996785">
       <ele>81.42</ele>
       <time>2014-11-08T23:56:24Z</time>
      </trkpt>
      <trkpt lat="50.762161" lon="1.996142">
       <ele>81.52</ele>
       <time>2014-11-08T23:57:00Z</time>
      </trkpt>
      <trkpt lat="50.762145" lon="1.996019">
       <ele>80.95</ele>
       <time>2014-11-08T23:57:02Z</time>
      </trkpt>
      <trkpt lat="50.762191" lon="1.995722">
       <ele>79.81</ele>
       <time>2014-11-08T23:57:09Z</time>
      </trkpt>
      <trkpt lat="50.762199" lon="1.995205">
       <ele>77.74</ele>
       <time>2014-11-08T23:57:20Z</time>
      </trkpt>
      <trkpt lat="50.761936" lon="1.994508">
       <ele>74.01</ele>
       <time>2014-11-08T23:57:37Z</time>
      </trkpt>
      <trkpt lat="50.761745" lon="1.993777">
       <ele>70.7</ele>
       <time>2014-11-08T23:57:54Z</time>
      </trkpt>
      <trkpt lat="50.761703" lon="1.992457">
       <ele>68.86</ele>
       <time>2014-11-08T23:58:21Z</time>
      </trkpt>
      <trkpt lat="50.761615" lon="1.991963">
       <ele>67.93</ele>
       <time>2014-11-08T23:58:32Z</time>
      </trkpt>
      <trkpt lat="50.761432" lon="1.991428">
       <ele>68.74</ele>
       <time>2014-11-08T23:58:45Z</time>
      </trkpt>
      <trkpt lat="50.761199" lon="1.990982">
       <ele>70.32</ele>
       <time>2014-11-08T23:58:57Z</time>
      </trkpt>
      <trkpt lat="50.761104" lon="1.990694">
       <ele>71.23</ele>
       <time>2014-11-08T23:59:04Z</time>
      </trkpt>
      <trkpt lat="50.761077" lon="1.990084">
       <ele>73.67</ele>
       <time>2014-11-08T23:59:17Z</time>
      </trkpt>
      <trkpt lat="50.761276" lon="1.985581">
       <ele>79.5</ele>
       <time>2014-11-09T00:00:52Z</time>
      </trkpt>
      <trkpt lat="50.763378" lon="1.978073">
       <ele>66.93</ele>
       <time>2014-11-09T00:03:46Z</time>
      </trkpt>
      <trkpt lat="50.763973" lon="1.978549">
       <ele>66.23</ele>
       <time>2014-11-09T00:04:08Z</time>
      </trkpt>
      <trkpt lat="50.764690" lon="1.977177">
       <ele>64.13</ele>
       <time>2014-11-09T00:04:46Z</time>
      </trkpt>
      <trkpt lat="50.764789" lon="1.976706">
       <ele>63.54</ele>
       <time>2014-11-09T00:04:56Z</time>
      </trkpt>
      <trkpt lat="50.765121" lon="1.976050">
       <ele>63.59</ele>
       <time>2014-11-09T00:05:14Z</time>
      </trkpt>
      <trkpt lat="50.765563" lon="1.975334">
       <ele>63.92</ele>
       <time>2014-11-09T00:05:35Z</time>
      </trkpt>
      <trkpt lat="50.765972" lon="1.974768">
       <ele>63.67</ele>
       <time>2014-11-09T00:05:53Z</time>
      </trkpt>
      <trkpt lat="50.767383" lon="1.973338">
       <ele>63.13</ele>
       <time>2014-11-09T00:06:49Z</time>
      </trkpt>
      <trkpt lat="50.768302" lon="1.971789">
       <ele>66.61</ele>
       <time>2014-11-09T00:07:34Z</time>
      </trkpt>
      <trkpt lat="50.769405" lon="1.970496">
       <ele>70.55</ele>
       <time>2014-11-09T00:08:20Z</time>
      </trkpt>
      <trkpt lat="50.769538" lon="1.970234">
       <ele>70.38</ele>
       <time>2014-11-09T00:08:27Z</time>
      </trkpt>
      <trkpt lat="50.770030" lon="1.969053">
       <ele>68.99</ele>
       <time>2014-11-09T00:08:56Z</time>
      </trkpt>
      <trkpt lat="50.772670" lon="1.964071">
       <ele>69.32</ele>
       <time>2014-11-09T00:11:14Z</time>
      </trkpt>
      <trkpt lat="50.772960" lon="1.963271">
       <ele>70.59</ele>
       <time>2014-11-09T00:11:33Z</time>
      </trkpt>
      <trkpt lat="50.773513" lon="1.960630">
       <ele>79.6</ele>
       <time>2014-11-09T00:12:32Z</time>
      </trkpt>
      <trkpt lat="50.773723" lon="1.959804">
       <ele>83.47</ele>
       <time>2014-11-09T00:12:51Z</time>
      </trkpt>
      <trkpt lat="50.774288" lon="1.958323">
       <ele>88.59</ele>
       <time>2014-11-09T00:13:27Z</time>
      </trkpt>
      <trkpt lat="50.774593" lon="1.957291">
       <ele>88.85</ele>
       <time>2014-11-09T00:13:51Z</time>
      </trkpt>
      <trkpt lat="50.775028" lon="1.956838">
       <ele>83.98</ele>
       <time>2014-11-09T00:14:09Z</time>
      </trkpt>
      <trkpt lat="50.775386" lon="1.957185">
       <ele>77.56</ele>
       <time>2014-11-09T00:14:23Z</time>
      </trkpt>
      <trkpt lat="50.775604" lon="1.957079">
       <ele>74.81</ele>
       <time>2014-11-09T00:14:30Z</time>
      </trkpt>
      <trkpt lat="50.777019" lon="1.953451">
       <ele>57.02</ele>
       <time>2014-11-09T00:16:00Z</time>
      </trkpt>
      <trkpt lat="50.777450" lon="1.952561">
       <ele>57.05</ele>
       <time>2014-11-09T00:16:24Z</time>
      </trkpt>
      <trkpt lat="50.777526" lon="1.952371">
       <ele>56.98</ele>
       <time>2014-11-09T00:16:28Z</time>
      </trkpt>
      <trkpt lat="50.777778" lon="1.952033">
       <ele>57.04</ele>
       <time>2014-11-09T00:16:39Z</time>
      </trkpt>
      <trkpt lat="50.778194" lon="1.951094">
       <ele>59.21</ele>
       <time>2014-11-09T00:17:04Z</time>
      </trkpt>
      <trkpt lat="50.778930" lon="1.948955">
       <ele>63.97</ele>
       <time>2014-11-09T00:17:55Z</time>
      </trkpt>
      <trkpt lat="50.779293" lon="1.948372">
       <ele>65.4</ele>
       <time>2014-11-09T00:18:12Z</time>
      </trkpt>
      <trkpt lat="50.779541" lon="1.948078">
       <ele>66.65</ele>
       <time>2014-11-09T00:18:23Z</time>
      </trkpt>
      <trkpt lat="50.779663" lon="1.947795">
       <ele>67.43</ele>
       <time>2014-11-09T00:18:30Z</time>
      </trkpt>
      <trkpt lat="50.781196" lon="1.944314">
       <ele>78.82</ele>
       <time>2014-11-09T00:19:59Z</time>
      </trkpt>
      <trkpt lat="50.781238" lon="1.944100">
       <ele>79.08</ele>
       <time>2014-11-09T00:20:04Z</time>
      </trkpt>
      <trkpt lat="50.781253" lon="1.943611">
       <ele>79.67</ele>
       <time>2014-11-09T00:20:14Z</time>
      </trkpt>
      <trkpt lat="50.781291" lon="1.943372">
       <ele>79.95</ele>
       <time>2014-11-09T00:20:20Z</time>
      </trkpt>
      <trkpt lat="50.781375" lon="1.943150">
       <ele>80.3</ele>
       <time>2014-11-09T00:20:25Z</time>
      </trkpt>
      <trkpt lat="50.781490" lon="1.942963">
       <ele>80.54</ele>
       <time>2014-11-09T00:20:31Z</time>
      </trkpt>
      <trkpt lat="50.781845" lon="1.942463">
       <ele>80.6</ele>
       <time>2014-11-09T00:20:46Z</time>
      </trkpt>
      <trkpt lat="50.782306" lon="1.941938">
       <ele>79.1</ele>
       <time>2014-11-09T00:21:05Z</time>
      </trkpt>
      <trkpt lat="50.782489" lon="1.941612">
       <ele>77.92</ele>
       <time>2014-11-09T00:21:15Z</time>
      </trkpt>
      <trkpt lat="50.783233" lon="1.939535">
       <ele>69.24</ele>
       <time>2014-11-09T00:22:05Z</time>
      </trkpt>
      <trkpt lat="50.783348" lon="1.939025">
       <ele>68</ele>
       <time>2014-11-09T00:22:16Z</time>
      </trkpt>
      <trkpt lat="50.783466" lon="1.938778">
       <ele>68</ele>
       <time>2014-11-09T00:22:23Z</time>
      </trkpt>
      <trkpt lat="50.784137" lon="1.937888">
       <ele>68.02</ele>
       <time>2014-11-09T00:22:52Z</time>
      </trkpt>
      <trkpt lat="50.784679" lon="1.937415">
       <ele>68.16</ele>
       <time>2014-11-09T00:23:13Z</time>
      </trkpt>
      <trkpt lat="50.785430" lon="1.936923">
       <ele>69.7</ele>
       <time>2014-11-09T00:23:40Z</time>
      </trkpt>
      <trkpt lat="50.785568" lon="1.936769">
       <ele>69.92</ele>
       <time>2014-11-09T00:23:46Z</time>
      </trkpt>
      <trkpt lat="50.785781" lon="1.936596">
       <ele>70.01</ele>
       <time>2014-11-09T00:23:54Z</time>
      </trkpt>
      <trkpt lat="50.785907" lon="1.936596">
       <ele>70</ele>
       <time>2014-11-09T00:23:58Z</time>
      </trkpt>
      <trkpt lat="50.786094" lon="1.936627">
       <ele>70</ele>
       <time>2014-11-09T00:24:04Z</time>
      </trkpt>
      <trkpt lat="50.786251" lon="1.936668">
       <ele>70</ele>
       <time>2014-11-09T00:24:09Z</time>
      </trkpt>
      <trkpt lat="50.786396" lon="1.936727">
       <ele>70</ele>
       <time>2014-11-09T00:24:14Z</time>
      </trkpt>
      <trkpt lat="50.786560" lon="1.936830">
       <ele>70</ele>
       <time>2014-11-09T00:24:20Z</time>
      </trkpt>
      <trkpt lat="50.787006" lon="1.937337">
       <ele>69.26</ele>
       <time>2014-11-09T00:24:39Z</time>
      </trkpt>
      <trkpt lat="50.787143" lon="1.937435">
       <ele>68.9</ele>
       <time>2014-11-09T00:24:44Z</time>
      </trkpt>
      <trkpt lat="50.787277" lon="1.937435">
       <ele>68.59</ele>
       <time>2014-11-09T00:24:48Z</time>
      </trkpt>
      <trkpt lat="50.787429" lon="1.937412">
       <ele>68.27</ele>
       <time>2014-11-09T00:24:53Z</time>
      </trkpt>
      <trkpt lat="50.787956" lon="1.937242">
       <ele>68.14</ele>
       <time>2014-11-09T00:25:11Z</time>
      </trkpt>
      <trkpt lat="50.789016" lon="1.936980">
       <ele>70.26</ele>
       <time>2014-11-09T00:25:47Z</time>
      </trkpt>
      <trkpt lat="50.789199" lon="1.936894">
       <ele>70.63</ele>
       <time>2014-11-09T00:25:53Z</time>
      </trkpt>
      <trkpt lat="50.789470" lon="1.936730">
       <ele>71.16</ele>
       <time>2014-11-09T00:26:03Z</time>
      </trkpt>
      <trkpt lat="50.789882" lon="1.936388">
       <ele>73.44</ele>
       <time>2014-11-09T00:26:18Z</time>
      </trkpt>
      <trkpt lat="50.790042" lon="1.936313">
       <ele>74.66</ele>
       <time>2014-11-09T00:26:24Z</time>
      </trkpt>
      <trkpt lat="50.790214" lon="1.936282">
       <ele>76.33</ele>
       <time>2014-11-09T00:26:30Z</time>
      </trkpt>
      <trkpt lat="50.790225" lon="1.936342">
       <ele>76.23</ele>
       <time>2014-11-09T00:26:31Z</time>
      </trkpt>
      <trkpt lat="50.790256" lon="1.936385">
       <ele>76.37</ele>
       <time>2014-11-09T00:26:33Z</time>
      </trkpt>
      <trkpt lat="50.790298" lon="1.936401">
       <ele>76.71</ele>
       <time>2014-11-09T00:26:34Z</time>
      </trkpt>
      <trkpt lat="50.790340" lon="1.936380">
       <ele>77.16</ele>
       <time>2014-11-09T00:26:35Z</time>
      </trkpt>
      <trkpt lat="50.790363" lon="1.936349">
       <ele>77.46</ele>
       <time>2014-11-09T00:26:36Z</time>
      </trkpt>
      <trkpt lat="50.790378" lon="1.936254">
       <ele>77.89</ele>
       <time>2014-11-09T00:26:38Z</time>
      </trkpt>
      <trkpt lat="50.790584" lon="1.936164">
       <ele>80</ele>
       <time>2014-11-09T00:26:46Z</time>
      </trkpt>
      <trkpt lat="50.790706" lon="1.936035">
       <ele>81.41</ele>
       <time>2014-11-09T00:26:51Z</time>
      </trkpt>
      <trkpt lat="50.790771" lon="1.935912">
       <ele>82.28</ele>
       <time>2014-11-09T00:26:54Z</time>
      </trkpt>
      <trkpt lat="50.790904" lon="1.935724">
       <ele>84.13</ele>
       <time>2014-11-09T00:27:00Z</time>
      </trkpt>
      <trkpt lat="50.790977" lon="1.935665">
       <ele>85.02</ele>
       <time>2014-11-09T00:27:03Z</time>
      </trkpt>
      <trkpt lat="50.791156" lon="1.935582">
       <ele>86.92</ele>
       <time>2014-11-09T00:27:09Z</time>
      </trkpt>
      <trkpt lat="50.791263" lon="1.935554">
       <ele>87.95</ele>
       <time>2014-11-09T00:27:12Z</time>
      </trkpt>
      <trkpt lat="50.791694" lon="1.935523">
       <ele>91.63</ele>
       <time>2014-11-09T00:27:27Z</time>
      </trkpt>
      <trkpt lat="50.792324" lon="1.935546">
       <ele>94.78</ele>
       <time>2014-11-09T00:27:48Z</time>
      </trkpt>
      <trkpt lat="50.792507" lon="1.935536">
       <ele>95.69</ele>
       <time>2014-11-09T00:27:54Z</time>
      </trkpt>
      <trkpt lat="50.794013" lon="1.935289">
       <ele>95.29</ele>
       <time>2014-11-09T00:28:44Z</time>
      </trkpt>
      <trkpt lat="50.796558" lon="1.934795">
       <ele>88.46</ele>
       <time>2014-11-09T00:30:10Z</time>
      </trkpt>
      <trkpt lat="50.797023" lon="1.934623">
       <ele>90.38</ele>
       <time>2014-11-09T00:30:26Z</time>
      </trkpt>
      <trkpt lat="50.797527" lon="1.934321">
       <ele>93.56</ele>
       <time>2014-11-09T00:30:44Z</time>
      </trkpt>
      <trkpt lat="50.797927" lon="1.933990">
       <ele>96.06</ele>
       <time>2014-11-09T00:30:59Z</time>
      </trkpt>
      <trkpt lat="50.798427" lon="1.933519">
       <ele>98.33</ele>
       <time>2014-11-09T00:31:18Z</time>
      </trkpt>
      <trkpt lat="50.798870" lon="1.932929">
       <ele>101.27</ele>
       <time>2014-11-09T00:31:38Z</time>
      </trkpt>
      <trkpt lat="50.800754" lon="1.930171">
       <ele>111.65</ele>
       <time>2014-11-09T00:33:03Z</time>
      </trkpt>
      <trkpt lat="50.801349" lon="1.929206">
       <ele>116.68</ele>
       <time>2014-11-09T00:33:32Z</time>
      </trkpt>
      <trkpt lat="50.801769" lon="1.928454">
       <ele>121.04</ele>
       <time>2014-11-09T00:33:53Z</time>
      </trkpt>
      <trkpt lat="50.802165" lon="1.927500">
       <ele>127.6</ele>
       <time>2014-11-09T00:34:17Z</time>
      </trkpt>
      <trkpt lat="50.802612" lon="1.926298">
       <ele>133.16</ele>
       <time>2014-11-09T00:34:46Z</time>
      </trkpt>
      <trkpt lat="50.803649" lon="1.923025">
       <ele>152.64</ele>
       <time>2014-11-09T00:36:04Z</time>
      </trkpt>
      <trkpt lat="50.803909" lon="1.922358">
       <ele>156.4</ele>
       <time>2014-11-09T00:36:20Z</time>
      </trkpt>
      <trkpt lat="50.804576" lon="1.920644">
       <ele>162.19</ele>
       <time>2014-11-09T00:37:03Z</time>
      </trkpt>
      <trkpt lat="50.804759" lon="1.920418">
       <ele>163.14</ele>
       <time>2014-11-09T00:37:10Z</time>
      </trkpt>
      <trkpt lat="50.804965" lon="1.920320">
       <ele>163.67</ele>
       <time>2014-11-09T00:37:18Z</time>
      </trkpt>
      <trkpt lat="50.805183" lon="1.920279">
       <ele>164.92</ele>
       <time>2014-11-09T00:37:25Z</time>
      </trkpt>
      <trkpt lat="50.805431" lon="1.920374">
       <ele>166.77</ele>
       <time>2014-11-09T00:37:33Z</time>
      </trkpt>
      <trkpt lat="50.805698" lon="1.920665">
       <ele>168.96</ele>
       <time>2014-11-09T00:37:44Z</time>
      </trkpt>
      <trkpt lat="50.806148" lon="1.921262">
       <ele>170.05</ele>
       <time>2014-11-09T00:38:04Z</time>
      </trkpt>
      <trkpt lat="50.807319" lon="1.922682">
       <ele>167.53</ele>
       <time>2014-11-09T00:38:53Z</time>
      </trkpt>
      <trkpt lat="50.807636" lon="1.922960">
       <ele>165.28</ele>
       <time>2014-11-09T00:39:05Z</time>
      </trkpt>
      <trkpt lat="50.807941" lon="1.923197">
       <ele>162.71</ele>
       <time>2014-11-09T00:39:17Z</time>
      </trkpt>
      <trkpt lat="50.809093" lon="1.923593">
       <ele>156.37</ele>
       <time>2014-11-09T00:39:56Z</time>
      </trkpt>
      <trkpt lat="50.809467" lon="1.923776">
       <ele>153.54</ele>
       <time>2014-11-09T00:40:09Z</time>
      </trkpt>
      <trkpt lat="50.809833" lon="1.924044">
       <ele>150.85</ele>
       <time>2014-11-09T00:40:22Z</time>
      </trkpt>
      <trkpt lat="50.810356" lon="1.924463">
       <ele>144.5</ele>
       <time>2014-11-09T00:40:42Z</time>
      </trkpt>
      <trkpt lat="50.810970" lon="1.924805">
       <ele>138.6</ele>
       <time>2014-11-09T00:41:04Z</time>
      </trkpt>
      <trkpt lat="50.811622" lon="1.925032">
       <ele>133.08</ele>
       <time>2014-11-09T00:41:26Z</time>
      </trkpt>
      <trkpt lat="50.814746" lon="1.925384">
       <ele>109.77</ele>
       <time>2014-11-09T00:43:10Z</time>
      </trkpt>
      <trkpt lat="50.816280" lon="1.925536">
       <ele>97.95</ele>
       <time>2014-11-09T00:44:02Z</time>
      </trkpt>
      <trkpt lat="50.816612" lon="1.925665">
       <ele>95.69</ele>
       <time>2014-11-09T00:44:13Z</time>
      </trkpt>
      <trkpt lat="50.816963" lon="1.925824">
       <ele>93.47</ele>
       <time>2014-11-09T00:44:25Z</time>
      </trkpt>
      <trkpt lat="50.817928" lon="1.926522">
       <ele>85.4</ele>
       <time>2014-11-09T00:45:01Z</time>
      </trkpt>
      <trkpt lat="50.819072" lon="1.927412">
       <ele>78.55</ele>
       <time>2014-11-09T00:45:43Z</time>
      </trkpt>
      <trkpt lat="50.819358" lon="1.927607">
       <ele>76.16</ele>
       <time>2014-11-09T00:45:54Z</time>
      </trkpt>
      <trkpt lat="50.819667" lon="1.927767">
       <ele>73.34</ele>
       <time>2014-11-09T00:46:04Z</time>
      </trkpt>
      <trkpt lat="50.820102" lon="1.927906">
       <ele>69.96</ele>
       <time>2014-11-09T00:46:19Z</time>
      </trkpt>
      <trkpt lat="50.820537" lon="1.927960">
       <ele>67.58</ele>
       <time>2014-11-09T00:46:34Z</time>
      </trkpt>
      <trkpt lat="50.821056" lon="1.927971">
       <ele>64.81</ele>
       <time>2014-11-09T00:46:51Z</time>
      </trkpt>
      <trkpt lat="50.821571" lon="1.927811">
       <ele>61.9</ele>
       <time>2014-11-09T00:47:09Z</time>
      </trkpt>
      <trkpt lat="50.821914" lon="1.927597">
       <ele>60.75</ele>
       <time>2014-11-09T00:47:21Z</time>
      </trkpt>
      <trkpt lat="50.822280" lon="1.927211">
       <ele>61.45</ele>
       <time>2014-11-09T00:47:36Z</time>
      </trkpt>
      <trkpt lat="50.822902" lon="1.926326">
       <ele>68.57</ele>
       <time>2014-11-09T00:48:04Z</time>
      </trkpt>
      <trkpt lat="50.825527" lon="1.922175">
       <ele>65.92</ele>
       <time>2014-11-09T00:50:07Z</time>
      </trkpt>
      <trkpt lat="50.826229" lon="1.921269">
       <ele>66.73</ele>
       <time>2014-11-09T00:50:38Z</time>
      </trkpt>
      <trkpt lat="50.826423" lon="1.921110">
       <ele>66.9</ele>
       <time>2014-11-09T00:50:45Z</time>
      </trkpt>
      <trkpt lat="50.827182" lon="1.920590">
       <ele>65.54</ele>
       <time>2014-11-09T00:51:12Z</time>
      </trkpt>
      <trkpt lat="50.828113" lon="1.920245">
       <ele>61.32</ele>
       <time>2014-11-09T00:51:44Z</time>
      </trkpt>
      <trkpt lat="50.828750" lon="1.920166">
       <ele>58.3</ele>
       <time>2014-11-09T00:52:06Z</time>
      </trkpt>
      <trkpt lat="50.829311" lon="1.920024">
       <ele>56.43</ele>
       <time>2014-11-09T00:52:25Z</time>
      </trkpt>
      <trkpt lat="50.829727" lon="1.919847">
       <ele>54.8</ele>
       <time>2014-11-09T00:52:39Z</time>
      </trkpt>
      <trkpt lat="50.830055" lon="1.919456">
       <ele>53.08</ele>
       <time>2014-11-09T00:52:53Z</time>
      </trkpt>
      <trkpt lat="50.830383" lon="1.919010">
       <ele>51.04</ele>
       <time>2014-11-09T00:53:07Z</time>
      </trkpt>
      <trkpt lat="50.831062" lon="1.918020">
       <ele>48.83</ele>
       <time>2014-11-09T00:53:38Z</time>
      </trkpt>
      <trkpt lat="50.831970" lon="1.916759">
       <ele>47.73</ele>
       <time>2014-11-09T00:54:18Z</time>
      </trkpt>
      <trkpt lat="50.832778" lon="1.915390">
       <ele>45.66</ele>
       <time>2014-11-09T00:54:58Z</time>
      </trkpt>
      <trkpt lat="50.833297" lon="1.914780">
       <ele>43.16</ele>
       <time>2014-11-09T00:55:19Z</time>
      </trkpt>
      <trkpt lat="50.834548" lon="1.914137">
       <ele>40.04</ele>
       <time>2014-11-09T00:56:03Z</time>
      </trkpt>
      <trkpt lat="50.836307" lon="1.913161">
       <ele>39.76</ele>
       <time>2014-11-09T00:57:05Z</time>
      </trkpt>
      <trkpt lat="50.837711" lon="1.912526">
       <ele>40.21</ele>
       <time>2014-11-09T00:57:54Z</time>
      </trkpt>
      <trkpt lat="50.838783" lon="1.912145">
       <ele>41.43</ele>
       <time>2014-11-09T00:58:31Z</time>
      </trkpt>
      <trkpt lat="50.839153" lon="1.911774">
       <ele>41.87</ele>
       <time>2014-11-09T00:58:45Z</time>
      </trkpt>
      <trkpt lat="50.839546" lon="1.911262">
       <ele>40.13</ele>
       <time>2014-11-09T00:59:02Z</time>
      </trkpt>
      <trkpt lat="50.840301" lon="1.910745">
       <ele>37.36</ele>
       <time>2014-11-09T00:59:30Z</time>
      </trkpt>
      <trkpt lat="50.841133" lon="1.910325">
       <ele>37.58</ele>
       <time>2014-11-09T00:59:59Z</time>
      </trkpt>
      <trkpt lat="50.841602" lon="1.909975">
       <ele>38.03</ele>
       <time>2014-11-09T01:00:16Z</time>
      </trkpt>
      <trkpt lat="50.841964" lon="1.909597">
       <ele>38.13</ele>
       <time>2014-11-09T01:00:31Z</time>
      </trkpt>
      <trkpt lat="50.842674" lon="1.908727">
       <ele>38.11</ele>
       <time>2014-11-09T01:01:01Z</time>
      </trkpt>
      <trkpt lat="50.843750" lon="1.907137">
       <ele>35.5</ele>
       <time>2014-11-09T01:01:50Z</time>
      </trkpt>
      <trkpt lat="50.846279" lon="1.903141">
       <ele>36.7</ele>
       <time>2014-11-09T01:03:49Z</time>
      </trkpt>
      <trkpt lat="50.848033" lon="1.900578">
       <ele>39.27</ele>
       <time>2014-11-09T01:05:09Z</time>
      </trkpt>
      <trkpt lat="50.849071" lon="1.898424">
       <ele>34.56</ele>
       <time>2014-11-09T01:06:06Z</time>
      </trkpt>
      <trkpt lat="50.850177" lon="1.896504">
       <ele>33.32</ele>
       <time>2014-11-09T01:07:00Z</time>
      </trkpt>
      <trkpt lat="50.851081" lon="1.894814">
       <ele>26.95</ele>
       <time>2014-11-09T01:07:47Z</time>
      </trkpt>
      <trkpt lat="50.851474" lon="1.894032">
       <ele>25.75</ele>
       <time>2014-11-09T01:08:08Z</time>
      </trkpt>
      <trkpt lat="50.851795" lon="1.893244">
       <ele>27.72</ele>
       <time>2014-11-09T01:08:28Z</time>
      </trkpt>
      <trkpt lat="50.852432" lon="1.891049">
       <ele>36.4</ele>
       <time>2014-11-09T01:09:19Z</time>
      </trkpt>
      <trkpt lat="50.852748" lon="1.890300">
       <ele>38.39</ele>
       <time>2014-11-09T01:09:38Z</time>
      </trkpt>
      <trkpt lat="50.853225" lon="1.889551">
       <ele>39.07</ele>
       <time>2014-11-09T01:10:00Z</time>
      </trkpt>
      <trkpt lat="50.855827" lon="1.885990">
       <ele>25.82</ele>
       <time>2014-11-09T01:11:55Z</time>
      </trkpt>
      <trkpt lat="50.857261" lon="1.885164">
       <ele>28.03</ele>
       <time>2014-11-09T01:12:46Z</time>
      </trkpt>
      <trkpt lat="50.858398" lon="1.884096">
       <ele>24.69</ele>
       <time>2014-11-09T01:13:30Z</time>
      </trkpt>
      <trkpt lat="50.859855" lon="1.882845">
       <ele>20.79</ele>
       <time>2014-11-09T01:14:25Z</time>
      </trkpt>
      <trkpt lat="50.861392" lon="1.881715">
       <ele>20.94</ele>
       <time>2014-11-09T01:15:22Z</time>
      </trkpt>
      <trkpt lat="50.862308" lon="1.880938">
       <ele>24.29</ele>
       <time>2014-11-09T01:15:56Z</time>
      </trkpt>
      <trkpt lat="50.862617" lon="1.881160">
       <ele>24.13</ele>
       <time>2014-11-09T01:16:08Z</time>
      </trkpt>
      <trkpt lat="50.862834" lon="1.880606">
       <ele>24.71</ele>
       <time>2014-11-09T01:16:22Z</time>
      </trkpt>
      <trkpt lat="50.862987" lon="1.880089">
       <ele>24.94</ele>
       <time>2014-11-09T01:16:34Z</time>
      </trkpt>
      <trkpt lat="50.863258" lon="1.878751">
       <ele>24.18</ele>
       <time>2014-11-09T01:17:03Z</time>
      </trkpt>
      <trkpt lat="50.863693" lon="1.876276">
       <ele>21.64</ele>
       <time>2014-11-09T01:17:57Z</time>
      </trkpt>
      <trkpt lat="50.864467" lon="1.872686">
       <ele>20.36</ele>
       <time>2014-11-09T01:19:17Z</time>
      </trkpt>
      <trkpt lat="50.864799" lon="1.870684">
       <ele>18.36</ele>
       <time>2014-11-09T01:20:01Z</time>
      </trkpt>
      <trkpt lat="50.865001" lon="1.869755">
       <ele>15.7</ele>
       <time>2014-11-09T01:20:21Z</time>
      </trkpt>
      <trkpt lat="50.865203" lon="1.869474">
       <ele>14.79</ele>
       <time>2014-11-09T01:20:30Z</time>
      </trkpt>
      <trkpt lat="50.865394" lon="1.868360">
       <ele>15.99</ele>
       <time>2014-11-09T01:20:55Z</time>
      </trkpt>
      <trkpt lat="50.865627" lon="1.867269">
       <ele>17.98</ele>
       <time>2014-11-09T01:21:19Z</time>
      </trkpt>
      <trkpt lat="50.865898" lon="1.865833">
       <ele>18.92</ele>
       <time>2014-11-09T01:21:51Z</time>
      </trkpt>
      <trkpt lat="50.866138" lon="1.864351">
       <ele>17.77</ele>
       <time>2014-11-09T01:22:23Z</time>
      </trkpt>
      <trkpt lat="50.866168" lon="1.864091">
       <ele>17.34</ele>
       <time>2014-11-09T01:22:28Z</time>
      </trkpt>
      <trkpt lat="50.866142" lon="1.863831">
       <ele>16.53</ele>
       <time>2014-11-09T01:22:34Z</time>
      </trkpt>
      <trkpt lat="50.866199" lon="1.862930">
       <ele>13.77</ele>
       <time>2014-11-09T01:22:53Z</time>
      </trkpt>
      <trkpt lat="50.866317" lon="1.861981">
       <ele>11.83</ele>
       <time>2014-11-09T01:23:13Z</time>
      </trkpt>
      <trkpt lat="50.866260" lon="1.860906">
       <ele>12.42</ele>
       <time>2014-11-09T01:23:36Z</time>
      </trkpt>
      <trkpt lat="50.866291" lon="1.860455">
       <ele>12.15</ele>
       <time>2014-11-09T01:23:46Z</time>
      </trkpt>
      <trkpt lat="50.866550" lon="1.858960">
       <ele>10.81</ele>
       <time>2014-11-09T01:24:18Z</time>
      </trkpt>
      <trkpt lat="50.866664" lon="1.858600">
       <ele>10.69</ele>
       <time>2014-11-09T01:24:27Z</time>
      </trkpt>
      <trkpt lat="50.866756" lon="1.858651">
       <ele>10.62</ele>
       <time>2014-11-09T01:24:30Z</time>
      </trkpt>
      <trkpt lat="50.866863" lon="1.858626">
       <ele>10.65</ele>
       <time>2014-11-09T01:24:34Z</time>
      </trkpt>
      <trkpt lat="50.866920" lon="1.858564">
       <ele>10.72</ele>
       <time>2014-11-09T01:24:36Z</time>
      </trkpt>
      <trkpt lat="50.866954" lon="1.858494">
       <ele>10.81</ele>
       <time>2014-11-09T01:24:38Z</time>
      </trkpt>
      <trkpt lat="50.866985" lon="1.858330">
       <ele>11.01</ele>
       <time>2014-11-09T01:24:41Z</time>
      </trkpt>
      <trkpt lat="50.866977" lon="1.858242">
       <ele>11.18</ele>
       <time>2014-11-09T01:24:43Z</time>
      </trkpt>
      <trkpt lat="50.866939" lon="1.858126">
       <ele>11.42</ele>
       <time>2014-11-09T01:24:46Z</time>
      </trkpt>
      <trkpt lat="50.866882" lon="1.858049">
       <ele>11.59</ele>
       <time>2014-11-09T01:24:48Z</time>
      </trkpt>
      <trkpt lat="50.866832" lon="1.858013">
       <ele>11.69</ele>
       <time>2014-11-09T01:24:50Z</time>
      </trkpt>
      <trkpt lat="50.866744" lon="1.858006">
       <ele>11.75</ele>
       <time>2014-11-09T01:24:53Z</time>
      </trkpt>
      <trkpt lat="50.866687" lon="1.858036">
       <ele>11.7</ele>
       <time>2014-11-09T01:24:55Z</time>
      </trkpt>
      <trkpt lat="50.866600" lon="1.858160">
       <ele>11.72</ele>
       <time>2014-11-09T01:24:59Z</time>
      </trkpt>
      <trkpt lat="50.866573" lon="1.858324">
       <ele>11.47</ele>
       <time>2014-11-09T01:25:03Z</time>
      </trkpt>
      <trkpt lat="50.866497" lon="1.858289">
       <ele>11.91</ele>
       <time>2014-11-09T01:25:05Z</time>
      </trkpt>
    </trkseg>
  </trk>
</gpx>
